<?xml version="1.0" encoding="UTF-8" standalone="no" ?>
<gpx xmlns="http://www.topografix.com/GPX/1/1" xmlns:xsi="http://www.w3.org/2001/XMLSchema-instance" xsi:schemaLocation="http://www.topografix.com/GPX/1/1 http://www.topografix.com/GPX/1/1/gpx.xsd" version="1.1" creator="VisuGPX - https://www.visugpx.com">
  <metadata>
    <name>Gap /Sentinelle/Tourrond/Rochette</name>
    <desc><![CDATA[Un circuit dans le gapençais avec au menu Col de La Sentinelle/Col du Tourrond/Côte de la Rochette , on peut aussi  prolonger par le Col de Manse ]]></desc>
  </metadata>
  <trk>
    <name><![CDATA[ACTIVE LOG 005]]></name>
    <trkseg>
      <trkpt lat="44.55879" lon="6.07452">
        <ele>682.192627</ele>
        <time>2011-11-01T09:13:01Z</time>
      </trkpt>
      <trkpt lat="44.55878" lon="6.07481">
        <ele>685.076904</ele>
        <time>2011-11-01T09:13:31Z</time>
      </trkpt>
      <trkpt lat="44.55878" lon="6.07481">
        <ele>688.922119</ele>
        <time>2011-11-01T09:13:33Z</time>
      </trkpt>
      <trkpt lat="44.55878" lon="6.0748">
        <ele>693.247803</ele>
        <time>2011-11-01T09:13:35Z</time>
      </trkpt>
      <trkpt lat="44.55878" lon="6.0748">
        <ele>697.57373</ele>
        <time>2011-11-01T09:13:37Z</time>
      </trkpt>
      <trkpt lat="44.55878" lon="6.0748">
        <ele>700.938477</ele>
        <time>2011-11-01T09:13:39Z</time>
      </trkpt>
      <trkpt lat="44.55878" lon="6.0748">
        <ele>704.783691</ele>
        <time>2011-11-01T09:13:41Z</time>
      </trkpt>
      <trkpt lat="44.55878" lon="6.0748">
        <ele>707.667725</ele>
        <time>2011-11-01T09:13:43Z</time>
      </trkpt>
      <trkpt lat="44.55878" lon="6.0748">
        <ele>711.032227</ele>
        <time>2011-11-01T09:13:45Z</time>
      </trkpt>
      <trkpt lat="44.55878" lon="6.07481">
        <ele>711.032227</ele>
        <time>2011-11-01T09:13:46Z</time>
      </trkpt>
      <trkpt lat="44.55879" lon="6.07479">
        <ele>714.877441</ele>
        <time>2011-11-01T09:14:05Z</time>
      </trkpt>
      <trkpt lat="44.55879" lon="6.07479">
        <ele>719.203613</ele>
        <time>2011-11-01T09:14:08Z</time>
      </trkpt>
      <trkpt lat="44.55879" lon="6.07479">
        <ele>721.126221</ele>
        <time>2011-11-01T09:14:10Z</time>
      </trkpt>
      <trkpt lat="44.55876" lon="6.07479">
        <ele>723.048828</ele>
        <time>2011-11-01T09:14:12Z</time>
      </trkpt>
      <trkpt lat="44.5587" lon="6.07473">
        <ele>727.855225</ele>
        <time>2011-11-01T09:14:17Z</time>
      </trkpt>
      <trkpt lat="44.5587" lon="6.07471">
        <ele>731.219971</ele>
        <time>2011-11-01T09:14:22Z</time>
      </trkpt>
      <trkpt lat="44.55871" lon="6.0747">
        <ele>731.700439</ele>
        <time>2011-11-01T09:14:24Z</time>
      </trkpt>
      <trkpt lat="44.55871" lon="6.0747">
        <ele>735.06543</ele>
        <time>2011-11-01T09:14:30Z</time>
      </trkpt>
      <trkpt lat="44.55871" lon="6.0747">
        <ele>738.429932</ele>
        <time>2011-11-01T09:14:39Z</time>
      </trkpt>
      <trkpt lat="44.5587" lon="6.07471">
        <ele>739.391113</ele>
        <time>2011-11-01T09:14:44Z</time>
      </trkpt>
      <trkpt lat="44.55832" lon="6.0745">
        <ele>741.794434</ele>
        <time>2011-11-01T09:14:57Z</time>
      </trkpt>
      <trkpt lat="44.55808" lon="6.07443">
        <ele>741.313721</ele>
        <time>2011-11-01T09:15:03Z</time>
      </trkpt>
      <trkpt lat="44.55764" lon="6.0746">
        <ele>739.391113</ele>
        <time>2011-11-01T09:15:11Z</time>
      </trkpt>
      <trkpt lat="44.55744" lon="6.07484">
        <ele>738.429932</ele>
        <time>2011-11-01T09:15:15Z</time>
      </trkpt>
      <trkpt lat="44.55686" lon="6.07601">
        <ele>734.104004</ele>
        <time>2011-11-01T09:15:29Z</time>
      </trkpt>
      <trkpt lat="44.55666" lon="6.07639">
        <ele>732.662109</ele>
        <time>2011-11-01T09:15:34Z</time>
      </trkpt>
      <trkpt lat="44.5563" lon="6.0764">
        <ele>731.700439</ele>
        <time>2011-11-01T09:15:42Z</time>
      </trkpt>
      <trkpt lat="44.55594" lon="6.07596">
        <ele>731.219971</ele>
        <time>2011-11-01T09:15:52Z</time>
      </trkpt>
      <trkpt lat="44.55582" lon="6.0758">
        <ele>731.219971</ele>
        <time>2011-11-01T09:15:56Z</time>
      </trkpt>
      <trkpt lat="44.55536" lon="6.07525">
        <ele>731.219971</ele>
        <time>2011-11-01T09:16:11Z</time>
      </trkpt>
      <trkpt lat="44.55492" lon="6.07463">
        <ele>731.700439</ele>
        <time>2011-11-01T09:16:29Z</time>
      </trkpt>
      <trkpt lat="44.55489" lon="6.0746">
        <ele>731.219971</ele>
        <time>2011-11-01T09:16:31Z</time>
      </trkpt>
      <trkpt lat="44.55492" lon="6.07465">
        <ele>731.700439</ele>
        <time>2011-11-01T09:16:35Z</time>
      </trkpt>
      <trkpt lat="44.55482" lon="6.07495">
        <ele>730.258545</ele>
        <time>2011-11-01T09:16:42Z</time>
      </trkpt>
      <trkpt lat="44.55483" lon="6.07516">
        <ele>730.739258</ele>
        <time>2011-11-01T09:16:47Z</time>
      </trkpt>
      <trkpt lat="44.55495" lon="6.07549">
        <ele>730.258545</ele>
        <time>2011-11-01T09:16:52Z</time>
      </trkpt>
      <trkpt lat="44.55504" lon="6.07587">
        <ele>727.855225</ele>
        <time>2011-11-01T09:16:57Z</time>
      </trkpt>
      <trkpt lat="44.55539" lon="6.07741">
        <ele>725.932617</ele>
        <time>2011-11-01T09:17:14Z</time>
      </trkpt>
      <trkpt lat="44.55562" lon="6.07805">
        <ele>726.41333</ele>
        <time>2011-11-01T09:17:24Z</time>
      </trkpt>
      <trkpt lat="44.5558" lon="6.07869">
        <ele>726.894043</ele>
        <time>2011-11-01T09:17:38Z</time>
      </trkpt>
      <trkpt lat="44.5557" lon="6.07885">
        <ele>726.894043</ele>
        <time>2011-11-01T09:17:40Z</time>
      </trkpt>
      <trkpt lat="44.55563" lon="6.07894">
        <ele>726.894043</ele>
        <time>2011-11-01T09:17:42Z</time>
      </trkpt>
      <trkpt lat="44.55526" lon="6.0791">
        <ele>726.894043</ele>
        <time>2011-11-01T09:17:50Z</time>
      </trkpt>
      <trkpt lat="44.55452" lon="6.07893">
        <ele>729.297119</ele>
        <time>2011-11-01T09:18:12Z</time>
      </trkpt>
      <trkpt lat="44.55394" lon="6.07881">
        <ele>731.700439</ele>
        <time>2011-11-01T09:18:33Z</time>
      </trkpt>
      <trkpt lat="44.55351" lon="6.07872">
        <ele>734.584717</ele>
        <time>2011-11-01T09:18:52Z</time>
      </trkpt>
      <trkpt lat="44.55321" lon="6.07839">
        <ele>737.468506</ele>
        <time>2011-11-01T09:19:12Z</time>
      </trkpt>
      <trkpt lat="44.55297" lon="6.07834">
        <ele>738.910645</ele>
        <time>2011-11-01T09:19:23Z</time>
      </trkpt>
      <trkpt lat="44.55265" lon="6.07817">
        <ele>740.833008</ele>
        <time>2011-11-01T09:19:39Z</time>
      </trkpt>
      <trkpt lat="44.55218" lon="6.07868">
        <ele>743.236328</ele>
        <time>2011-11-01T09:19:56Z</time>
      </trkpt>
      <trkpt lat="44.55185" lon="6.07859">
        <ele>745.639648</ele>
        <time>2011-11-01T09:20:13Z</time>
      </trkpt>
      <trkpt lat="44.55153" lon="6.07863">
        <ele>747.562256</ele>
        <time>2011-11-01T09:20:30Z</time>
      </trkpt>
      <trkpt lat="44.55121" lon="6.07864">
        <ele>749.96582</ele>
        <time>2011-11-01T09:20:46Z</time>
      </trkpt>
      <trkpt lat="44.55082" lon="6.07858">
        <ele>752.849609</ele>
        <time>2011-11-01T09:21:05Z</time>
      </trkpt>
      <trkpt lat="44.5504" lon="6.07848">
        <ele>755.733643</ele>
        <time>2011-11-01T09:21:26Z</time>
      </trkpt>
      <trkpt lat="44.54996" lon="6.07835">
        <ele>758.617432</ele>
        <time>2011-11-01T09:21:48Z</time>
      </trkpt>
      <trkpt lat="44.54952" lon="6.07818">
        <ele>761.020752</ele>
        <time>2011-11-01T09:22:11Z</time>
      </trkpt>
      <trkpt lat="44.54924" lon="6.07819">
        <ele>763.424072</ele>
        <time>2011-11-01T09:22:27Z</time>
      </trkpt>
      <trkpt lat="44.54885" lon="6.07859">
        <ele>767.269531</ele>
        <time>2011-11-01T09:22:52Z</time>
      </trkpt>
      <trkpt lat="44.54844" lon="6.07866">
        <ele>769.672852</ele>
        <time>2011-11-01T09:23:13Z</time>
      </trkpt>
      <trkpt lat="44.54824" lon="6.07856">
        <ele>770.634033</ele>
        <time>2011-11-01T09:23:23Z</time>
      </trkpt>
      <trkpt lat="44.54793" lon="6.07833">
        <ele>773.518066</ele>
        <time>2011-11-01T09:23:40Z</time>
      </trkpt>
      <trkpt lat="44.54775" lon="6.07818">
        <ele>774.479248</ele>
        <time>2011-11-01T09:23:50Z</time>
      </trkpt>
      <trkpt lat="44.54749" lon="6.07803">
        <ele>775.921143</ele>
        <time>2011-11-01T09:24:03Z</time>
      </trkpt>
      <trkpt lat="44.54717" lon="6.07786">
        <ele>778.324463</ele>
        <time>2011-11-01T09:24:19Z</time>
      </trkpt>
      <trkpt lat="44.54674" lon="6.07771">
        <ele>781.20874</ele>
        <time>2011-11-01T09:24:41Z</time>
      </trkpt>
      <trkpt lat="44.54632" lon="6.07753">
        <ele>784.092529</ele>
        <time>2011-11-01T09:25:03Z</time>
      </trkpt>
      <trkpt lat="44.54595" lon="6.07744">
        <ele>786.976318</ele>
        <time>2011-11-01T09:25:22Z</time>
      </trkpt>
      <trkpt lat="44.54569" lon="6.07758">
        <ele>789.379639</ele>
        <time>2011-11-01T09:25:37Z</time>
      </trkpt>
      <trkpt lat="44.54531" lon="6.07785">
        <ele>792.263672</ele>
        <time>2011-11-01T09:25:59Z</time>
      </trkpt>
      <trkpt lat="44.54503" lon="6.0781">
        <ele>794.186279</ele>
        <time>2011-11-01T09:26:18Z</time>
      </trkpt>
      <trkpt lat="44.54497" lon="6.07844">
        <ele>796.109131</ele>
        <time>2011-11-01T09:26:32Z</time>
      </trkpt>
      <trkpt lat="44.545" lon="6.07888">
        <ele>798.031738</ele>
        <time>2011-11-01T09:26:50Z</time>
      </trkpt>
      <trkpt lat="44.54513" lon="6.07936">
        <ele>798.512207</ele>
        <time>2011-11-01T09:27:07Z</time>
      </trkpt>
      <trkpt lat="44.5454" lon="6.08028">
        <ele>798.031738</ele>
        <time>2011-11-01T09:27:26Z</time>
      </trkpt>
      <trkpt lat="44.54542" lon="6.08035">
        <ele>797.551025</ele>
        <time>2011-11-01T09:27:27Z</time>
      </trkpt>
      <trkpt lat="44.54554" lon="6.08146">
        <ele>794.666748</ele>
        <time>2011-11-01T09:27:41Z</time>
      </trkpt>
      <trkpt lat="44.54562" lon="6.08187">
        <ele>793.224854</ele>
        <time>2011-11-01T09:27:45Z</time>
      </trkpt>
      <trkpt lat="44.54578" lon="6.08265">
        <ele>790.341064</ele>
        <time>2011-11-01T09:27:52Z</time>
      </trkpt>
      <trkpt lat="44.54593" lon="6.08351">
        <ele>786.976318</ele>
        <time>2011-11-01T09:27:59Z</time>
      </trkpt>
      <trkpt lat="44.54604" lon="6.08403">
        <ele>785.534424</ele>
        <time>2011-11-01T09:28:03Z</time>
      </trkpt>
      <trkpt lat="44.54613" lon="6.0845">
        <ele>782.169922</ele>
        <time>2011-11-01T09:28:07Z</time>
      </trkpt>
      <trkpt lat="44.54615" lon="6.08461">
        <ele>782.169922</ele>
        <time>2011-11-01T09:28:08Z</time>
      </trkpt>
      <trkpt lat="44.54619" lon="6.08482">
        <ele>781.20874</ele>
        <time>2011-11-01T09:28:10Z</time>
      </trkpt>
      <trkpt lat="44.54619" lon="6.08522">
        <ele>778.805176</ele>
        <time>2011-11-01T09:28:14Z</time>
      </trkpt>
      <trkpt lat="44.54619" lon="6.0853">
        <ele>778.805176</ele>
        <time>2011-11-01T09:28:15Z</time>
      </trkpt>
      <trkpt lat="44.54617" lon="6.08545">
        <ele>777.84375</ele>
        <time>2011-11-01T09:28:17Z</time>
      </trkpt>
      <trkpt lat="44.54615" lon="6.08551">
        <ele>776.882568</ele>
        <time>2011-11-01T09:28:18Z</time>
      </trkpt>
      <trkpt lat="44.54583" lon="6.08613">
        <ele>775.44043</ele>
        <time>2011-11-01T09:28:32Z</time>
      </trkpt>
      <trkpt lat="44.54561" lon="6.08649">
        <ele>777.363281</ele>
        <time>2011-11-01T09:28:45Z</time>
      </trkpt>
      <trkpt lat="44.54541" lon="6.08681">
        <ele>779.766357</ele>
        <time>2011-11-01T09:29:00Z</time>
      </trkpt>
      <trkpt lat="44.54525" lon="6.08714">
        <ele>782.169922</ele>
        <time>2011-11-01T09:29:14Z</time>
      </trkpt>
      <trkpt lat="44.54518" lon="6.08762">
        <ele>784.092529</ele>
        <time>2011-11-01T09:29:31Z</time>
      </trkpt>
      <trkpt lat="44.54508" lon="6.08833">
        <ele>786.976318</ele>
        <time>2011-11-01T09:29:57Z</time>
      </trkpt>
      <trkpt lat="44.54507" lon="6.08844">
        <ele>787.457031</ele>
        <time>2011-11-01T09:30:13Z</time>
      </trkpt>
      <trkpt lat="44.54505" lon="6.08854">
        <ele>786.976318</ele>
        <time>2011-11-01T09:31:49Z</time>
      </trkpt>
      <trkpt lat="44.545" lon="6.08895">
        <ele>788.89917</ele>
        <time>2011-11-01T09:32:02Z</time>
      </trkpt>
      <trkpt lat="44.54491" lon="6.08967">
        <ele>790.821533</ele>
        <time>2011-11-01T09:32:25Z</time>
      </trkpt>
      <trkpt lat="44.54481" lon="6.09047">
        <ele>793.224854</ele>
        <time>2011-11-01T09:32:51Z</time>
      </trkpt>
      <trkpt lat="44.54471" lon="6.09124">
        <ele>795.628174</ele>
        <time>2011-11-01T09:33:17Z</time>
      </trkpt>
      <trkpt lat="44.5445" lon="6.09154">
        <ele>797.551025</ele>
        <time>2011-11-01T09:33:31Z</time>
      </trkpt>
      <trkpt lat="44.54435" lon="6.09153">
        <ele>798.99292</ele>
        <time>2011-11-01T09:33:38Z</time>
      </trkpt>
      <trkpt lat="44.54424" lon="6.09146">
        <ele>798.99292</ele>
        <time>2011-11-01T09:33:43Z</time>
      </trkpt>
      <trkpt lat="44.54392" lon="6.09096">
        <ele>802.357422</ele>
        <time>2011-11-01T09:34:05Z</time>
      </trkpt>
      <trkpt lat="44.54356" lon="6.09069">
        <ele>804.280273</ele>
        <time>2011-11-01T09:34:25Z</time>
      </trkpt>
      <trkpt lat="44.54309" lon="6.0905">
        <ele>807.644775</ele>
        <time>2011-11-01T09:34:47Z</time>
      </trkpt>
      <trkpt lat="44.54264" lon="6.09034">
        <ele>810.528564</ele>
        <time>2011-11-01T09:35:10Z</time>
      </trkpt>
      <trkpt lat="44.54224" lon="6.09039">
        <ele>812.932129</ele>
        <time>2011-11-01T09:35:29Z</time>
      </trkpt>
      <trkpt lat="44.54179" lon="6.09065">
        <ele>815.816162</ele>
        <time>2011-11-01T09:35:52Z</time>
      </trkpt>
      <trkpt lat="44.54137" lon="6.0909">
        <ele>818.699951</ele>
        <time>2011-11-01T09:36:15Z</time>
      </trkpt>
      <trkpt lat="44.54096" lon="6.09111">
        <ele>822.064453</ele>
        <time>2011-11-01T09:36:36Z</time>
      </trkpt>
      <trkpt lat="44.54051" lon="6.09105">
        <ele>824.467773</ele>
        <time>2011-11-01T09:36:57Z</time>
      </trkpt>
      <trkpt lat="44.54008" lon="6.09069">
        <ele>827.351807</ele>
        <time>2011-11-01T09:37:20Z</time>
      </trkpt>
      <trkpt lat="44.53949" lon="6.0905">
        <ele>829.755127</ele>
        <time>2011-11-01T09:37:47Z</time>
      </trkpt>
      <trkpt lat="44.53906" lon="6.09042">
        <ele>832.158447</ele>
        <time>2011-11-01T09:38:07Z</time>
      </trkpt>
      <trkpt lat="44.53865" lon="6.09019">
        <ele>834.561768</ele>
        <time>2011-11-01T09:38:28Z</time>
      </trkpt>
      <trkpt lat="44.53816" lon="6.09005">
        <ele>837.445557</ele>
        <time>2011-11-01T09:38:52Z</time>
      </trkpt>
      <trkpt lat="44.53765" lon="6.08999">
        <ele>840.32959</ele>
        <time>2011-11-01T09:39:15Z</time>
      </trkpt>
      <trkpt lat="44.53719" lon="6.09007">
        <ele>842.73291</ele>
        <time>2011-11-01T09:39:38Z</time>
      </trkpt>
      <trkpt lat="44.53677" lon="6.09032">
        <ele>844.175049</ele>
        <time>2011-11-01T09:39:58Z</time>
      </trkpt>
      <trkpt lat="44.53622" lon="6.09072">
        <ele>845.13623</ele>
        <time>2011-11-01T09:40:23Z</time>
      </trkpt>
      <trkpt lat="44.53587" lon="6.09099">
        <ele>845.13623</ele>
        <time>2011-11-01T09:40:38Z</time>
      </trkpt>
      <trkpt lat="44.53529" lon="6.0914">
        <ele>845.13623</ele>
        <time>2011-11-01T09:41:00Z</time>
      </trkpt>
      <trkpt lat="44.53481" lon="6.0919">
        <ele>846.097656</ele>
        <time>2011-11-01T09:41:21Z</time>
      </trkpt>
      <trkpt lat="44.53428" lon="6.09241">
        <ele>847.539551</ele>
        <time>2011-11-01T09:41:44Z</time>
      </trkpt>
      <trkpt lat="44.5337" lon="6.09268">
        <ele>847.058838</ele>
        <time>2011-11-01T09:42:04Z</time>
      </trkpt>
      <trkpt lat="44.53325" lon="6.09292">
        <ele>846.097656</ele>
        <time>2011-11-01T09:42:16Z</time>
      </trkpt>
      <trkpt lat="44.533" lon="6.09346">
        <ele>844.655518</ele>
        <time>2011-11-01T09:42:24Z</time>
      </trkpt>
      <trkpt lat="44.53304" lon="6.09446">
        <ele>840.32959</ele>
        <time>2011-11-01T09:42:33Z</time>
      </trkpt>
      <trkpt lat="44.53307" lon="6.09457">
        <ele>840.32959</ele>
        <time>2011-11-01T09:42:34Z</time>
      </trkpt>
      <trkpt lat="44.53313" lon="6.0949">
        <ele>838.406982</ele>
        <time>2011-11-01T09:42:37Z</time>
      </trkpt>
      <trkpt lat="44.53314" lon="6.09524">
        <ele>836.964844</ele>
        <time>2011-11-01T09:42:41Z</time>
      </trkpt>
      <trkpt lat="44.533" lon="6.09529">
        <ele>835.522949</ele>
        <time>2011-11-01T09:42:43Z</time>
      </trkpt>
      <trkpt lat="44.53293" lon="6.09529">
        <ele>835.04248</ele>
        <time>2011-11-01T09:42:44Z</time>
      </trkpt>
      <trkpt lat="44.5328" lon="6.09527">
        <ele>834.561768</ele>
        <time>2011-11-01T09:42:46Z</time>
      </trkpt>
      <trkpt lat="44.53236" lon="6.09579">
        <ele>831.197266</ele>
        <time>2011-11-01T09:42:54Z</time>
      </trkpt>
      <trkpt lat="44.53233" lon="6.09606">
        <ele>830.716553</ele>
        <time>2011-11-01T09:42:57Z</time>
      </trkpt>
      <trkpt lat="44.53235" lon="6.09632">
        <ele>828.793945</ele>
        <time>2011-11-01T09:43:00Z</time>
      </trkpt>
      <trkpt lat="44.53213" lon="6.09653">
        <ele>828.793945</ele>
        <time>2011-11-01T09:43:05Z</time>
      </trkpt>
      <trkpt lat="44.53206" lon="6.09641">
        <ele>828.793945</ele>
        <time>2011-11-01T09:43:07Z</time>
      </trkpt>
      <trkpt lat="44.53186" lon="6.0959">
        <ele>830.23584</ele>
        <time>2011-11-01T09:43:21Z</time>
      </trkpt>
      <trkpt lat="44.53162" lon="6.09539">
        <ele>832.158447</ele>
        <time>2011-11-01T09:43:40Z</time>
      </trkpt>
      <trkpt lat="44.53127" lon="6.09501">
        <ele>834.081055</ele>
        <time>2011-11-01T09:44:00Z</time>
      </trkpt>
      <trkpt lat="44.53088" lon="6.09485">
        <ele>836.003662</ele>
        <time>2011-11-01T09:44:19Z</time>
      </trkpt>
      <trkpt lat="44.53073" lon="6.09516">
        <ele>836.964844</ele>
        <time>2011-11-01T09:44:32Z</time>
      </trkpt>
      <trkpt lat="44.53063" lon="6.09569">
        <ele>838.887695</ele>
        <time>2011-11-01T09:44:48Z</time>
      </trkpt>
      <trkpt lat="44.53039" lon="6.09613">
        <ele>839.848877</ele>
        <time>2011-11-01T09:45:04Z</time>
      </trkpt>
      <trkpt lat="44.52999" lon="6.0965">
        <ele>842.252197</ele>
        <time>2011-11-01T09:45:25Z</time>
      </trkpt>
      <trkpt lat="44.52958" lon="6.0964">
        <ele>845.616943</ele>
        <time>2011-11-01T09:45:43Z</time>
      </trkpt>
      <trkpt lat="44.52921" lon="6.09587">
        <ele>848.500732</ele>
        <time>2011-11-01T09:46:08Z</time>
      </trkpt>
      <trkpt lat="44.52888" lon="6.09592">
        <ele>850.423584</ele>
        <time>2011-11-01T09:46:23Z</time>
      </trkpt>
      <trkpt lat="44.52847" lon="6.09626">
        <ele>851.384766</ele>
        <time>2011-11-01T09:46:41Z</time>
      </trkpt>
      <trkpt lat="44.52788" lon="6.09662">
        <ele>852.345947</ele>
        <time>2011-11-01T09:47:04Z</time>
      </trkpt>
      <trkpt lat="44.5274" lon="6.09709">
        <ele>852.82666</ele>
        <time>2011-11-01T09:47:23Z</time>
      </trkpt>
      <trkpt lat="44.52687" lon="6.09733">
        <ele>855.22998</ele>
        <time>2011-11-01T09:47:45Z</time>
      </trkpt>
      <trkpt lat="44.52627" lon="6.09757">
        <ele>857.633301</ele>
        <time>2011-11-01T09:48:12Z</time>
      </trkpt>
      <trkpt lat="44.5259" lon="6.09784">
        <ele>860.036621</ele>
        <time>2011-11-01T09:48:31Z</time>
      </trkpt>
      <trkpt lat="44.5258" lon="6.0984">
        <ele>861.959473</ele>
        <time>2011-11-01T09:48:50Z</time>
      </trkpt>
      <trkpt lat="44.52584" lon="6.09902">
        <ele>863.881836</ele>
        <time>2011-11-01T09:49:11Z</time>
      </trkpt>
      <trkpt lat="44.52596" lon="6.09965">
        <ele>866.765869</ele>
        <time>2011-11-01T09:49:32Z</time>
      </trkpt>
      <trkpt lat="44.52597" lon="6.09969">
        <ele>866.765869</ele>
        <time>2011-11-01T09:49:33Z</time>
      </trkpt>
      <trkpt lat="44.52598" lon="6.10043">
        <ele>868.207764</ele>
        <time>2011-11-01T09:49:56Z</time>
      </trkpt>
      <trkpt lat="44.52589" lon="6.10109">
        <ele>870.130371</ele>
        <time>2011-11-01T09:50:18Z</time>
      </trkpt>
      <trkpt lat="44.52576" lon="6.10169">
        <ele>872.533691</ele>
        <time>2011-11-01T09:50:37Z</time>
      </trkpt>
      <trkpt lat="44.52546" lon="6.10185">
        <ele>873.495117</ele>
        <time>2011-11-01T09:50:51Z</time>
      </trkpt>
      <trkpt lat="44.52527" lon="6.10157">
        <ele>873.975586</ele>
        <time>2011-11-01T09:51:02Z</time>
      </trkpt>
      <trkpt lat="44.52533" lon="6.10098">
        <ele>876.37915</ele>
        <time>2011-11-01T09:51:21Z</time>
      </trkpt>
      <trkpt lat="44.52528" lon="6.10031">
        <ele>879.262939</ele>
        <time>2011-11-01T09:51:44Z</time>
      </trkpt>
      <trkpt lat="44.52507" lon="6.09987">
        <ele>881.66626</ele>
        <time>2011-11-01T09:52:04Z</time>
      </trkpt>
      <trkpt lat="44.52476" lon="6.09949">
        <ele>884.550293</ele>
        <time>2011-11-01T09:52:25Z</time>
      </trkpt>
      <trkpt lat="44.5243" lon="6.0992">
        <ele>887.914795</ele>
        <time>2011-11-01T09:52:49Z</time>
      </trkpt>
      <trkpt lat="44.52385" lon="6.09923">
        <ele>890.798584</ele>
        <time>2011-11-01T09:53:12Z</time>
      </trkpt>
      <trkpt lat="44.52351" lon="6.09933">
        <ele>893.202148</ele>
        <time>2011-11-01T09:53:29Z</time>
      </trkpt>
      <trkpt lat="44.52308" lon="6.09951">
        <ele>896.086182</ele>
        <time>2011-11-01T09:53:51Z</time>
      </trkpt>
      <trkpt lat="44.52272" lon="6.0997">
        <ele>899.450684</ele>
        <time>2011-11-01T09:54:10Z</time>
      </trkpt>
      <trkpt lat="44.52233" lon="6.09983">
        <ele>901.373291</ele>
        <time>2011-11-01T09:54:28Z</time>
      </trkpt>
      <trkpt lat="44.52184" lon="6.09974">
        <ele>903.776611</ele>
        <time>2011-11-01T09:54:49Z</time>
      </trkpt>
      <trkpt lat="44.52139" lon="6.09964">
        <ele>907.141113</ele>
        <time>2011-11-01T09:55:10Z</time>
      </trkpt>
      <trkpt lat="44.52094" lon="6.09954">
        <ele>910.025146</ele>
        <time>2011-11-01T09:55:33Z</time>
      </trkpt>
      <trkpt lat="44.52053" lon="6.09943">
        <ele>912.90918</ele>
        <time>2011-11-01T09:55:53Z</time>
      </trkpt>
      <trkpt lat="44.52016" lon="6.09961">
        <ele>915.793213</ele>
        <time>2011-11-01T09:56:13Z</time>
      </trkpt>
      <trkpt lat="44.51978" lon="6.09958">
        <ele>919.157715</ele>
        <time>2011-11-01T09:56:31Z</time>
      </trkpt>
      <trkpt lat="44.51935" lon="6.09939">
        <ele>922.522217</ele>
        <time>2011-11-01T09:56:52Z</time>
      </trkpt>
      <trkpt lat="44.51904" lon="6.09935">
        <ele>924.925781</ele>
        <time>2011-11-01T09:57:08Z</time>
      </trkpt>
      <trkpt lat="44.51892" lon="6.09971">
        <ele>926.848389</ele>
        <time>2011-11-01T09:57:24Z</time>
      </trkpt>
      <trkpt lat="44.51886" lon="6.10028">
        <ele>929.251465</ele>
        <time>2011-11-01T09:57:45Z</time>
      </trkpt>
      <trkpt lat="44.51864" lon="6.10075">
        <ele>932.616211</ele>
        <time>2011-11-01T09:58:05Z</time>
      </trkpt>
      <trkpt lat="44.51857" lon="6.10136">
        <ele>935.5</ele>
        <time>2011-11-01T09:58:28Z</time>
      </trkpt>
      <trkpt lat="44.51857" lon="6.10201">
        <ele>937.422607</ele>
        <time>2011-11-01T09:58:50Z</time>
      </trkpt>
      <trkpt lat="44.51828" lon="6.10228">
        <ele>939.345215</ele>
        <time>2011-11-01T09:59:06Z</time>
      </trkpt>
      <trkpt lat="44.51801" lon="6.10212">
        <ele>940.787354</ele>
        <time>2011-11-01T09:59:20Z</time>
      </trkpt>
      <trkpt lat="44.51787" lon="6.10159">
        <ele>943.190674</ele>
        <time>2011-11-01T09:59:39Z</time>
      </trkpt>
      <trkpt lat="44.51772" lon="6.10112">
        <ele>945.593994</ele>
        <time>2011-11-01T09:59:58Z</time>
      </trkpt>
      <trkpt lat="44.51753" lon="6.10055">
        <ele>948.477783</ele>
        <time>2011-11-01T10:00:20Z</time>
      </trkpt>
      <trkpt lat="44.5172" lon="6.10027">
        <ele>950.881104</ele>
        <time>2011-11-01T10:00:39Z</time>
      </trkpt>
      <trkpt lat="44.51679" lon="6.10011">
        <ele>954.24585</ele>
        <time>2011-11-01T10:01:00Z</time>
      </trkpt>
      <trkpt lat="44.51642" lon="6.09983">
        <ele>956.64917</ele>
        <time>2011-11-01T10:01:21Z</time>
      </trkpt>
      <trkpt lat="44.51598" lon="6.09966">
        <ele>960.013672</ele>
        <time>2011-11-01T10:01:43Z</time>
      </trkpt>
      <trkpt lat="44.51553" lon="6.09962">
        <ele>963.378418</ele>
        <time>2011-11-01T10:02:06Z</time>
      </trkpt>
      <trkpt lat="44.51505" lon="6.09954">
        <ele>966.262207</ele>
        <time>2011-11-01T10:02:30Z</time>
      </trkpt>
      <trkpt lat="44.51462" lon="6.09959">
        <ele>969.626953</ele>
        <time>2011-11-01T10:02:51Z</time>
      </trkpt>
      <trkpt lat="44.5142" lon="6.09973">
        <ele>972.991699</ele>
        <time>2011-11-01T10:03:14Z</time>
      </trkpt>
      <trkpt lat="44.51389" lon="6.09992">
        <ele>974.914307</ele>
        <time>2011-11-01T10:03:30Z</time>
      </trkpt>
      <trkpt lat="44.51351" lon="6.10016">
        <ele>977.798096</ele>
        <time>2011-11-01T10:03:51Z</time>
      </trkpt>
      <trkpt lat="44.51316" lon="6.10047">
        <ele>980.682129</ele>
        <time>2011-11-01T10:04:11Z</time>
      </trkpt>
      <trkpt lat="44.51283" lon="6.1009">
        <ele>982.124023</ele>
        <time>2011-11-01T10:04:34Z</time>
      </trkpt>
      <trkpt lat="44.51273" lon="6.10115">
        <ele>984.046631</ele>
        <time>2011-11-01T10:04:43Z</time>
      </trkpt>
      <trkpt lat="44.51249" lon="6.10168">
        <ele>982.124023</ele>
        <time>2011-11-01T10:04:59Z</time>
      </trkpt>
      <trkpt lat="44.5122" lon="6.10217">
        <ele>982.604736</ele>
        <time>2011-11-01T10:05:14Z</time>
      </trkpt>
      <trkpt lat="44.51163" lon="6.10269">
        <ele>981.643311</ele>
        <time>2011-11-01T10:05:33Z</time>
      </trkpt>
      <trkpt lat="44.51127" lon="6.10324">
        <ele>978.278809</ele>
        <time>2011-11-01T10:05:42Z</time>
      </trkpt>
      <trkpt lat="44.51093" lon="6.10376">
        <ele>975.394775</ele>
        <time>2011-11-01T10:05:48Z</time>
      </trkpt>
      <trkpt lat="44.51075" lon="6.10403">
        <ele>973.952881</ele>
        <time>2011-11-01T10:05:51Z</time>
      </trkpt>
      <trkpt lat="44.51063" lon="6.10428">
        <ele>972.510986</ele>
        <time>2011-11-01T10:05:54Z</time>
      </trkpt>
      <trkpt lat="44.51058" lon="6.10462">
        <ele>971.068848</ele>
        <time>2011-11-01T10:05:57Z</time>
      </trkpt>
      <trkpt lat="44.51057" lon="6.10474">
        <ele>970.107422</ele>
        <time>2011-11-01T10:05:58Z</time>
      </trkpt>
      <trkpt lat="44.51061" lon="6.10538">
        <ele>966.74292</ele>
        <time>2011-11-01T10:06:03Z</time>
      </trkpt>
      <trkpt lat="44.51062" lon="6.10552">
        <ele>966.74292</ele>
        <time>2011-11-01T10:06:04Z</time>
      </trkpt>
      <trkpt lat="44.51064" lon="6.10578">
        <ele>965.781738</ele>
        <time>2011-11-01T10:06:06Z</time>
      </trkpt>
      <trkpt lat="44.51062" lon="6.10604">
        <ele>964.3396</ele>
        <time>2011-11-01T10:06:08Z</time>
      </trkpt>
      <trkpt lat="44.5105" lon="6.10641">
        <ele>961.936523</ele>
        <time>2011-11-01T10:06:11Z</time>
      </trkpt>
      <trkpt lat="44.51033" lon="6.10675">
        <ele>959.533203</ele>
        <time>2011-11-01T10:06:14Z</time>
      </trkpt>
      <trkpt lat="44.51005" lon="6.1072">
        <ele>957.610596</ele>
        <time>2011-11-01T10:06:18Z</time>
      </trkpt>
      <trkpt lat="44.50969" lon="6.10778">
        <ele>953.284424</ele>
        <time>2011-11-01T10:06:23Z</time>
      </trkpt>
      <trkpt lat="44.50962" lon="6.10788">
        <ele>953.284424</ele>
        <time>2011-11-01T10:06:24Z</time>
      </trkpt>
      <trkpt lat="44.50944" lon="6.10817">
        <ele>951.361816</ele>
        <time>2011-11-01T10:06:27Z</time>
      </trkpt>
      <trkpt lat="44.50931" lon="6.10836">
        <ele>949.919922</ele>
        <time>2011-11-01T10:06:29Z</time>
      </trkpt>
      <trkpt lat="44.50913" lon="6.10862">
        <ele>947.997314</ele>
        <time>2011-11-01T10:06:32Z</time>
      </trkpt>
      <trkpt lat="44.50893" lon="6.10882">
        <ele>946.55542</ele>
        <time>2011-11-01T10:06:35Z</time>
      </trkpt>
      <trkpt lat="44.50802" lon="6.10916">
        <ele>943.671387</ele>
        <time>2011-11-01T10:06:47Z</time>
      </trkpt>
      <trkpt lat="44.50718" lon="6.10939">
        <ele>943.190674</ele>
        <time>2011-11-01T10:07:01Z</time>
      </trkpt>
      <trkpt lat="44.50638" lon="6.10963">
        <ele>940.306885</ele>
        <time>2011-11-01T10:07:16Z</time>
      </trkpt>
      <trkpt lat="44.5062" lon="6.10968">
        <ele>938.864746</ele>
        <time>2011-11-01T10:07:19Z</time>
      </trkpt>
      <trkpt lat="44.50556" lon="6.10988">
        <ele>936.461426</ele>
        <time>2011-11-01T10:07:31Z</time>
      </trkpt>
      <trkpt lat="44.50512" lon="6.11">
        <ele>936.461426</ele>
        <time>2011-11-01T10:07:44Z</time>
      </trkpt>
      <trkpt lat="44.5051" lon="6.11017">
        <ele>937.422607</ele>
        <time>2011-11-01T10:07:51Z</time>
      </trkpt>
      <trkpt lat="44.50546" lon="6.11039">
        <ele>941.748779</ele>
        <time>2011-11-01T10:08:10Z</time>
      </trkpt>
      <trkpt lat="44.50592" lon="6.11067">
        <ele>945.113281</ele>
        <time>2011-11-01T10:08:35Z</time>
      </trkpt>
      <trkpt lat="44.50622" lon="6.11086">
        <ele>947.997314</ele>
        <time>2011-11-01T10:08:52Z</time>
      </trkpt>
      <trkpt lat="44.50647" lon="6.11102">
        <ele>950.881104</ele>
        <time>2011-11-01T10:09:08Z</time>
      </trkpt>
      <trkpt lat="44.50679" lon="6.11121">
        <ele>954.24585</ele>
        <time>2011-11-01T10:09:27Z</time>
      </trkpt>
      <trkpt lat="44.50709" lon="6.1114">
        <ele>956.64917</ele>
        <time>2011-11-01T10:09:44Z</time>
      </trkpt>
      <trkpt lat="44.50737" lon="6.11158">
        <ele>960.013672</ele>
        <time>2011-11-01T10:10:01Z</time>
      </trkpt>
      <trkpt lat="44.50767" lon="6.11177">
        <ele>962.897705</ele>
        <time>2011-11-01T10:10:19Z</time>
      </trkpt>
      <trkpt lat="44.50795" lon="6.11193">
        <ele>966.262207</ele>
        <time>2011-11-01T10:10:36Z</time>
      </trkpt>
      <trkpt lat="44.508" lon="6.11195">
        <ele>966.262207</ele>
        <time>2011-11-01T10:10:39Z</time>
      </trkpt>
      <trkpt lat="44.50804" lon="6.11197">
        <ele>967.223633</ele>
        <time>2011-11-01T10:10:42Z</time>
      </trkpt>
      <trkpt lat="44.50831" lon="6.11212">
        <ele>970.588135</ele>
        <time>2011-11-01T10:10:59Z</time>
      </trkpt>
      <trkpt lat="44.5085" lon="6.11223">
        <ele>973.472412</ele>
        <time>2011-11-01T10:11:12Z</time>
      </trkpt>
      <trkpt lat="44.50854" lon="6.11227">
        <ele>973.472412</ele>
        <time>2011-11-01T10:11:15Z</time>
      </trkpt>
      <trkpt lat="44.5086" lon="6.11239">
        <ele>973.952881</ele>
        <time>2011-11-01T10:11:20Z</time>
      </trkpt>
      <trkpt lat="44.50884" lon="6.11277">
        <ele>976.836914</ele>
        <time>2011-11-01T10:11:41Z</time>
      </trkpt>
      <trkpt lat="44.50924" lon="6.113">
        <ele>978.278809</ele>
        <time>2011-11-01T10:12:00Z</time>
      </trkpt>
      <trkpt lat="44.5097" lon="6.11318">
        <ele>979.720703</ele>
        <time>2011-11-01T10:12:19Z</time>
      </trkpt>
      <trkpt lat="44.51006" lon="6.11331">
        <ele>980.682129</ele>
        <time>2011-11-01T10:12:35Z</time>
      </trkpt>
      <trkpt lat="44.51041" lon="6.1135">
        <ele>982.124023</ele>
        <time>2011-11-01T10:12:51Z</time>
      </trkpt>
      <trkpt lat="44.51093" lon="6.11379">
        <ele>985.488525</ele>
        <time>2011-11-01T10:13:16Z</time>
      </trkpt>
      <trkpt lat="44.51141" lon="6.11389">
        <ele>986.449951</ele>
        <time>2011-11-01T10:13:37Z</time>
      </trkpt>
      <trkpt lat="44.51185" lon="6.11416">
        <ele>987.891846</ele>
        <time>2011-11-01T10:13:57Z</time>
      </trkpt>
      <trkpt lat="44.51221" lon="6.11463">
        <ele>990.29541</ele>
        <time>2011-11-01T10:14:18Z</time>
      </trkpt>
      <trkpt lat="44.51247" lon="6.11507">
        <ele>991.737305</ele>
        <time>2011-11-01T10:14:36Z</time>
      </trkpt>
      <trkpt lat="44.5128" lon="6.11548">
        <ele>992.218018</ele>
        <time>2011-11-01T10:14:54Z</time>
      </trkpt>
      <trkpt lat="44.51325" lon="6.11563">
        <ele>988.853516</ele>
        <time>2011-11-01T10:15:02Z</time>
      </trkpt>
      <trkpt lat="44.51357" lon="6.11575">
        <ele>987.411133</ele>
        <time>2011-11-01T10:15:07Z</time>
      </trkpt>
      <trkpt lat="44.51381" lon="6.1158">
        <ele>987.411133</ele>
        <time>2011-11-01T10:15:11Z</time>
      </trkpt>
      <trkpt lat="44.51416" lon="6.11636">
        <ele>985.488525</ele>
        <time>2011-11-01T10:15:20Z</time>
      </trkpt>
      <trkpt lat="44.51411" lon="6.11658">
        <ele>985.488525</ele>
        <time>2011-11-01T10:15:23Z</time>
      </trkpt>
      <trkpt lat="44.51404" lon="6.11677">
        <ele>985.008057</ele>
        <time>2011-11-01T10:15:26Z</time>
      </trkpt>
      <trkpt lat="44.51398" lon="6.11772">
        <ele>986.93042</ele>
        <time>2011-11-01T10:15:43Z</time>
      </trkpt>
      <trkpt lat="44.51409" lon="6.11849">
        <ele>984.527344</ele>
        <time>2011-11-01T10:15:55Z</time>
      </trkpt>
      <trkpt lat="44.51414" lon="6.11881">
        <ele>983.085205</ele>
        <time>2011-11-01T10:15:58Z</time>
      </trkpt>
      <trkpt lat="44.51429" lon="6.11949">
        <ele>979.720703</ele>
        <time>2011-11-01T10:16:04Z</time>
      </trkpt>
      <trkpt lat="44.51458" lon="6.1204">
        <ele>977.317627</ele>
        <time>2011-11-01T10:16:13Z</time>
      </trkpt>
      <trkpt lat="44.51465" lon="6.12063">
        <ele>975.875488</ele>
        <time>2011-11-01T10:16:16Z</time>
      </trkpt>
      <trkpt lat="44.51478" lon="6.12095">
        <ele>974.433594</ele>
        <time>2011-11-01T10:16:20Z</time>
      </trkpt>
      <trkpt lat="44.51504" lon="6.12131">
        <ele>972.030273</ele>
        <time>2011-11-01T10:16:25Z</time>
      </trkpt>
      <trkpt lat="44.51512" lon="6.12143">
        <ele>971.549316</ele>
        <time>2011-11-01T10:16:27Z</time>
      </trkpt>
      <trkpt lat="44.51506" lon="6.12157">
        <ele>970.588135</ele>
        <time>2011-11-01T10:16:30Z</time>
      </trkpt>
      <trkpt lat="44.51501" lon="6.12168">
        <ele>971.068848</ele>
        <time>2011-11-01T10:16:32Z</time>
      </trkpt>
      <trkpt lat="44.5151" lon="6.12223">
        <ele>970.588135</ele>
        <time>2011-11-01T10:16:43Z</time>
      </trkpt>
      <trkpt lat="44.51519" lon="6.12248">
        <ele>970.107422</ele>
        <time>2011-11-01T10:16:47Z</time>
      </trkpt>
      <trkpt lat="44.51536" lon="6.12268">
        <ele>969.14624</ele>
        <time>2011-11-01T10:16:52Z</time>
      </trkpt>
      <trkpt lat="44.51546" lon="6.12273">
        <ele>969.626953</ele>
        <time>2011-11-01T10:16:54Z</time>
      </trkpt>
      <trkpt lat="44.51572" lon="6.12275">
        <ele>968.665527</ele>
        <time>2011-11-01T10:17:00Z</time>
      </trkpt>
      <trkpt lat="44.51574" lon="6.1229">
        <ele>967.223633</ele>
        <time>2011-11-01T10:17:03Z</time>
      </trkpt>
      <trkpt lat="44.51568" lon="6.123">
        <ele>967.223633</ele>
        <time>2011-11-01T10:17:06Z</time>
      </trkpt>
      <trkpt lat="44.51539" lon="6.12311">
        <ele>967.223633</ele>
        <time>2011-11-01T10:17:14Z</time>
      </trkpt>
      <trkpt lat="44.51513" lon="6.12335">
        <ele>967.704102</ele>
        <time>2011-11-01T10:17:23Z</time>
      </trkpt>
      <trkpt lat="44.51498" lon="6.12377">
        <ele>967.223633</ele>
        <time>2011-11-01T10:17:32Z</time>
      </trkpt>
      <trkpt lat="44.51491" lon="6.12422">
        <ele>965.781738</ele>
        <time>2011-11-01T10:17:39Z</time>
      </trkpt>
      <trkpt lat="44.51494" lon="6.12515">
        <ele>963.858887</ele>
        <time>2011-11-01T10:17:51Z</time>
      </trkpt>
      <trkpt lat="44.51519" lon="6.12596">
        <ele>960.494385</ele>
        <time>2011-11-01T10:18:00Z</time>
      </trkpt>
      <trkpt lat="44.51526" lon="6.12612">
        <ele>959.533203</ele>
        <time>2011-11-01T10:18:02Z</time>
      </trkpt>
      <trkpt lat="44.51529" lon="6.12619">
        <ele>959.05249</ele>
        <time>2011-11-01T10:18:03Z</time>
      </trkpt>
      <trkpt lat="44.51534" lon="6.12631">
        <ele>959.05249</ele>
        <time>2011-11-01T10:18:05Z</time>
      </trkpt>
      <trkpt lat="44.51538" lon="6.1268">
        <ele>959.533203</ele>
        <time>2011-11-01T10:18:13Z</time>
      </trkpt>
      <trkpt lat="44.51532" lon="6.12698">
        <ele>960.494385</ele>
        <time>2011-11-01T10:18:19Z</time>
      </trkpt>
      <trkpt lat="44.51519" lon="6.12723">
        <ele>963.858887</ele>
        <time>2011-11-01T10:18:33Z</time>
      </trkpt>
      <trkpt lat="44.5151" lon="6.12738">
        <ele>965.301025</ele>
        <time>2011-11-01T10:18:40Z</time>
      </trkpt>
      <trkpt lat="44.51501" lon="6.12756">
        <ele>966.74292</ele>
        <time>2011-11-01T10:18:50Z</time>
      </trkpt>
      <trkpt lat="44.51496" lon="6.1277">
        <ele>967.704102</ele>
        <time>2011-11-01T10:18:53Z</time>
      </trkpt>
      <trkpt lat="44.51491" lon="6.12779">
        <ele>969.14624</ele>
        <time>2011-11-01T10:18:58Z</time>
      </trkpt>
      <trkpt lat="44.51486" lon="6.12786">
        <ele>969.626953</ele>
        <time>2011-11-01T10:19:03Z</time>
      </trkpt>
      <trkpt lat="44.51486" lon="6.12786">
        <ele>970.107422</ele>
        <time>2011-11-01T10:19:07Z</time>
      </trkpt>
      <trkpt lat="44.51475" lon="6.12804">
        <ele>971.068848</ele>
        <time>2011-11-01T10:19:11Z</time>
      </trkpt>
      <trkpt lat="44.5146" lon="6.12829">
        <ele>973.952881</ele>
        <time>2011-11-01T10:19:25Z</time>
      </trkpt>
      <trkpt lat="44.51446" lon="6.12852">
        <ele>976.356201</ele>
        <time>2011-11-01T10:19:36Z</time>
      </trkpt>
      <trkpt lat="44.51428" lon="6.12875">
        <ele>979.720703</ele>
        <time>2011-11-01T10:19:51Z</time>
      </trkpt>
      <trkpt lat="44.51415" lon="6.12881">
        <ele>981.162842</ele>
        <time>2011-11-01T10:19:59Z</time>
      </trkpt>
      <trkpt lat="44.51409" lon="6.12883">
        <ele>981.643311</ele>
        <time>2011-11-01T10:20:02Z</time>
      </trkpt>
      <trkpt lat="44.51398" lon="6.12888">
        <ele>983.085205</ele>
        <time>2011-11-01T10:20:09Z</time>
      </trkpt>
      <trkpt lat="44.51389" lon="6.12926">
        <ele>984.046631</ele>
        <time>2011-11-01T10:20:24Z</time>
      </trkpt>
      <trkpt lat="44.51394" lon="6.12943">
        <ele>984.527344</ele>
        <time>2011-11-01T10:20:31Z</time>
      </trkpt>
      <trkpt lat="44.51397" lon="6.12953">
        <ele>984.527344</ele>
        <time>2011-11-01T10:20:36Z</time>
      </trkpt>
      <trkpt lat="44.5139" lon="6.12998">
        <ele>986.449951</ele>
        <time>2011-11-01T10:20:50Z</time>
      </trkpt>
      <trkpt lat="44.51389" lon="6.13047">
        <ele>988.853516</ele>
        <time>2011-11-01T10:21:09Z</time>
      </trkpt>
      <trkpt lat="44.51394" lon="6.13088">
        <ele>992.218018</ele>
        <time>2011-11-01T10:21:26Z</time>
      </trkpt>
      <trkpt lat="44.51394" lon="6.13107">
        <ele>995.101807</ele>
        <time>2011-11-01T10:21:37Z</time>
      </trkpt>
      <trkpt lat="44.51396" lon="6.13123">
        <ele>996.063232</ele>
        <time>2011-11-01T10:21:41Z</time>
      </trkpt>
      <trkpt lat="44.51399" lon="6.1313">
        <ele>997.024414</ele>
        <time>2011-11-01T10:21:45Z</time>
      </trkpt>
      <trkpt lat="44.51405" lon="6.13147">
        <ele>997.98584</ele>
        <time>2011-11-01T10:21:52Z</time>
      </trkpt>
      <trkpt lat="44.51397" lon="6.13158">
        <ele>998.466309</ele>
        <time>2011-11-01T10:21:56Z</time>
      </trkpt>
      <trkpt lat="44.51397" lon="6.13163">
        <ele>998.947021</ele>
        <time>2011-11-01T10:21:58Z</time>
      </trkpt>
      <trkpt lat="44.51405" lon="6.13189">
        <ele>1000.869629</ele>
        <time>2011-11-01T10:22:08Z</time>
      </trkpt>
      <trkpt lat="44.51417" lon="6.13207">
        <ele>1002.792236</ele>
        <time>2011-11-01T10:22:20Z</time>
      </trkpt>
      <trkpt lat="44.51429" lon="6.13215">
        <ele>1003.753662</ele>
        <time>2011-11-01T10:22:27Z</time>
      </trkpt>
      <trkpt lat="44.51456" lon="6.13218">
        <ele>1006.156982</ele>
        <time>2011-11-01T10:22:41Z</time>
      </trkpt>
      <trkpt lat="44.51471" lon="6.13227">
        <ele>1007.599121</ele>
        <time>2011-11-01T10:22:49Z</time>
      </trkpt>
      <trkpt lat="44.5148" lon="6.13261">
        <ele>1010.48291</ele>
        <time>2011-11-01T10:23:04Z</time>
      </trkpt>
      <trkpt lat="44.51496" lon="6.13302">
        <ele>1012.405518</ele>
        <time>2011-11-01T10:23:20Z</time>
      </trkpt>
      <trkpt lat="44.515" lon="6.13315">
        <ele>1013.366943</ele>
        <time>2011-11-01T10:23:25Z</time>
      </trkpt>
      <trkpt lat="44.51506" lon="6.13344">
        <ele>1015.289551</ele>
        <time>2011-11-01T10:23:37Z</time>
      </trkpt>
      <trkpt lat="44.51508" lon="6.13355">
        <ele>1016.250732</ele>
        <time>2011-11-01T10:23:42Z</time>
      </trkpt>
      <trkpt lat="44.51508" lon="6.13362">
        <ele>1016.731445</ele>
        <time>2011-11-01T10:23:45Z</time>
      </trkpt>
      <trkpt lat="44.51504" lon="6.13372">
        <ele>1017.692627</ele>
        <time>2011-11-01T10:23:49Z</time>
      </trkpt>
      <trkpt lat="44.51493" lon="6.13373">
        <ele>1019.134766</ele>
        <time>2011-11-01T10:23:57Z</time>
      </trkpt>
      <trkpt lat="44.51469" lon="6.13347">
        <ele>1021.538086</ele>
        <time>2011-11-01T10:24:13Z</time>
      </trkpt>
      <trkpt lat="44.51469" lon="6.13343">
        <ele>1022.018799</ele>
        <time>2011-11-01T10:24:15Z</time>
      </trkpt>
      <trkpt lat="44.51463" lon="6.13338">
        <ele>1022.980225</ele>
        <time>2011-11-01T10:24:20Z</time>
      </trkpt>
      <trkpt lat="44.51436" lon="6.13313">
        <ele>1025.864014</ele>
        <time>2011-11-01T10:24:38Z</time>
      </trkpt>
      <trkpt lat="44.51411" lon="6.13324">
        <ele>1027.786621</ele>
        <time>2011-11-01T10:24:53Z</time>
      </trkpt>
      <trkpt lat="44.51393" lon="6.13317">
        <ele>1029.709229</ele>
        <time>2011-11-01T10:25:04Z</time>
      </trkpt>
      <trkpt lat="44.51368" lon="6.13313">
        <ele>1032.112549</ele>
        <time>2011-11-01T10:25:19Z</time>
      </trkpt>
      <trkpt lat="44.51341" lon="6.13311">
        <ele>1034.035156</ele>
        <time>2011-11-01T10:25:34Z</time>
      </trkpt>
      <trkpt lat="44.51313" lon="6.1331">
        <ele>1036.919189</ele>
        <time>2011-11-01T10:25:49Z</time>
      </trkpt>
      <trkpt lat="44.51281" lon="6.13338">
        <ele>1039.803223</ele>
        <time>2011-11-01T10:26:10Z</time>
      </trkpt>
      <trkpt lat="44.51258" lon="6.13372">
        <ele>1043.167725</ele>
        <time>2011-11-01T10:26:28Z</time>
      </trkpt>
      <trkpt lat="44.51257" lon="6.13376">
        <ele>1043.648438</ele>
        <time>2011-11-01T10:26:30Z</time>
      </trkpt>
      <trkpt lat="44.51252" lon="6.13384">
        <ele>1043.648438</ele>
        <time>2011-11-01T10:26:34Z</time>
      </trkpt>
      <trkpt lat="44.51234" lon="6.13421">
        <ele>1047.493652</ele>
        <time>2011-11-01T10:26:53Z</time>
      </trkpt>
      <trkpt lat="44.51228" lon="6.13461">
        <ele>1050.377686</ele>
        <time>2011-11-01T10:27:11Z</time>
      </trkpt>
      <trkpt lat="44.5122" lon="6.13479">
        <ele>1051.338867</ele>
        <time>2011-11-01T10:27:19Z</time>
      </trkpt>
      <trkpt lat="44.51217" lon="6.13497">
        <ele>1052.300293</ele>
        <time>2011-11-01T10:27:27Z</time>
      </trkpt>
      <trkpt lat="44.51201" lon="6.13542">
        <ele>1052.300293</ele>
        <time>2011-11-01T10:27:41Z</time>
      </trkpt>
      <trkpt lat="44.51198" lon="6.13556">
        <ele>1051.81958</ele>
        <time>2011-11-01T10:27:44Z</time>
      </trkpt>
      <trkpt lat="44.51181" lon="6.13566">
        <ele>1050.377686</ele>
        <time>2011-11-01T10:27:47Z</time>
      </trkpt>
      <trkpt lat="44.51188" lon="6.13622">
        <ele>1048.935547</ele>
        <time>2011-11-01T10:27:54Z</time>
      </trkpt>
      <trkpt lat="44.51188" lon="6.13649">
        <ele>1047.493652</ele>
        <time>2011-11-01T10:27:57Z</time>
      </trkpt>
      <trkpt lat="44.51206" lon="6.13708">
        <ele>1043.648438</ele>
        <time>2011-11-01T10:28:04Z</time>
      </trkpt>
      <trkpt lat="44.51221" lon="6.13773">
        <ele>1040.283936</ele>
        <time>2011-11-01T10:28:10Z</time>
      </trkpt>
      <trkpt lat="44.51229" lon="6.13804">
        <ele>1038.361328</ele>
        <time>2011-11-01T10:28:13Z</time>
      </trkpt>
      <trkpt lat="44.51232" lon="6.13814">
        <ele>1037.399902</ele>
        <time>2011-11-01T10:28:14Z</time>
      </trkpt>
      <trkpt lat="44.51236" lon="6.13879">
        <ele>1034.996582</ele>
        <time>2011-11-01T10:28:20Z</time>
      </trkpt>
      <trkpt lat="44.51215" lon="6.13944">
        <ele>1030.670654</ele>
        <time>2011-11-01T10:28:26Z</time>
      </trkpt>
      <trkpt lat="44.5121" lon="6.13955">
        <ele>1030.670654</ele>
        <time>2011-11-01T10:28:27Z</time>
      </trkpt>
      <trkpt lat="44.51196" lon="6.13998">
        <ele>1028.267334</ele>
        <time>2011-11-01T10:28:31Z</time>
      </trkpt>
      <trkpt lat="44.51189" lon="6.1403">
        <ele>1025.864014</ele>
        <time>2011-11-01T10:28:34Z</time>
      </trkpt>
      <trkpt lat="44.51188" lon="6.1404">
        <ele>1025.383301</ele>
        <time>2011-11-01T10:28:35Z</time>
      </trkpt>
      <trkpt lat="44.51192" lon="6.14073">
        <ele>1023.460938</ele>
        <time>2011-11-01T10:28:39Z</time>
      </trkpt>
      <trkpt lat="44.51202" lon="6.14096">
        <ele>1022.499512</ele>
        <time>2011-11-01T10:28:42Z</time>
      </trkpt>
      <trkpt lat="44.5121" lon="6.14111">
        <ele>1021.057617</ele>
        <time>2011-11-01T10:28:44Z</time>
      </trkpt>
      <trkpt lat="44.51232" lon="6.14135">
        <ele>1019.615479</ele>
        <time>2011-11-01T10:28:48Z</time>
      </trkpt>
      <trkpt lat="44.5128" lon="6.14161">
        <ele>1016.250732</ele>
        <time>2011-11-01T10:28:55Z</time>
      </trkpt>
      <trkpt lat="44.51294" lon="6.14169">
        <ele>1014.808838</ele>
        <time>2011-11-01T10:28:57Z</time>
      </trkpt>
      <trkpt lat="44.51339" lon="6.14189">
        <ele>1010.963623</ele>
        <time>2011-11-01T10:29:03Z</time>
      </trkpt>
      <trkpt lat="44.51346" lon="6.14192">
        <ele>1010.963623</ele>
        <time>2011-11-01T10:29:04Z</time>
      </trkpt>
      <trkpt lat="44.51376" lon="6.14209">
        <ele>1008.560303</ele>
        <time>2011-11-01T10:29:08Z</time>
      </trkpt>
      <trkpt lat="44.51398" lon="6.14224">
        <ele>1006.637695</ele>
        <time>2011-11-01T10:29:11Z</time>
      </trkpt>
      <trkpt lat="44.51426" lon="6.14234">
        <ele>1004.234619</ele>
        <time>2011-11-01T10:29:15Z</time>
      </trkpt>
      <trkpt lat="44.51433" lon="6.14236">
        <ele>1003.272949</ele>
        <time>2011-11-01T10:29:16Z</time>
      </trkpt>
      <trkpt lat="44.51445" lon="6.14244">
        <ele>1001.831055</ele>
        <time>2011-11-01T10:29:18Z</time>
      </trkpt>
      <trkpt lat="44.51451" lon="6.14249">
        <ele>1001.350342</ele>
        <time>2011-11-01T10:29:19Z</time>
      </trkpt>
      <trkpt lat="44.51486" lon="6.14286">
        <ele>998.947021</ele>
        <time>2011-11-01T10:29:25Z</time>
      </trkpt>
      <trkpt lat="44.51497" lon="6.14297">
        <ele>998.466309</ele>
        <time>2011-11-01T10:29:27Z</time>
      </trkpt>
      <trkpt lat="44.51504" lon="6.14301">
        <ele>996.543945</ele>
        <time>2011-11-01T10:29:29Z</time>
      </trkpt>
      <trkpt lat="44.51516" lon="6.14295">
        <ele>996.063232</ele>
        <time>2011-11-01T10:29:32Z</time>
      </trkpt>
      <trkpt lat="44.51526" lon="6.14292">
        <ele>996.063232</ele>
        <time>2011-11-01T10:29:34Z</time>
      </trkpt>
      <trkpt lat="44.51548" lon="6.14286">
        <ele>995.101807</ele>
        <time>2011-11-01T10:29:38Z</time>
      </trkpt>
      <trkpt lat="44.51566" lon="6.14279">
        <ele>993.179199</ele>
        <time>2011-11-01T10:29:41Z</time>
      </trkpt>
      <trkpt lat="44.51578" lon="6.14266">
        <ele>991.256592</ele>
        <time>2011-11-01T10:29:44Z</time>
      </trkpt>
      <trkpt lat="44.51589" lon="6.1428">
        <ele>989.814697</ele>
        <time>2011-11-01T10:29:48Z</time>
      </trkpt>
      <trkpt lat="44.51586" lon="6.14296">
        <ele>989.814697</ele>
        <time>2011-11-01T10:29:51Z</time>
      </trkpt>
      <trkpt lat="44.51572" lon="6.14331">
        <ele>988.853516</ele>
        <time>2011-11-01T10:29:57Z</time>
      </trkpt>
      <trkpt lat="44.51568" lon="6.14375">
        <ele>987.411133</ele>
        <time>2011-11-01T10:30:03Z</time>
      </trkpt>
      <trkpt lat="44.51536" lon="6.14408">
        <ele>984.046631</ele>
        <time>2011-11-01T10:30:09Z</time>
      </trkpt>
      <trkpt lat="44.51523" lon="6.14447">
        <ele>979.720703</ele>
        <time>2011-11-01T10:30:17Z</time>
      </trkpt>
      <trkpt lat="44.51529" lon="6.14472">
        <ele>979.23999</ele>
        <time>2011-11-01T10:30:20Z</time>
      </trkpt>
      <trkpt lat="44.51544" lon="6.14515">
        <ele>975.875488</ele>
        <time>2011-11-01T10:30:25Z</time>
      </trkpt>
      <trkpt lat="44.51545" lon="6.14522">
        <ele>974.433594</ele>
        <time>2011-11-01T10:30:26Z</time>
      </trkpt>
      <trkpt lat="44.51562" lon="6.14545">
        <ele>972.030273</ele>
        <time>2011-11-01T10:30:31Z</time>
      </trkpt>
      <trkpt lat="44.51554" lon="6.1456">
        <ele>971.068848</ele>
        <time>2011-11-01T10:30:36Z</time>
      </trkpt>
      <trkpt lat="44.5154" lon="6.14558">
        <ele>969.626953</ele>
        <time>2011-11-01T10:30:39Z</time>
      </trkpt>
      <trkpt lat="44.515" lon="6.14537">
        <ele>967.223633</ele>
        <time>2011-11-01T10:30:46Z</time>
      </trkpt>
      <trkpt lat="44.51471" lon="6.14517">
        <ele>963.858887</ele>
        <time>2011-11-01T10:30:51Z</time>
      </trkpt>
      <trkpt lat="44.51466" lon="6.14515">
        <ele>962.897705</ele>
        <time>2011-11-01T10:30:52Z</time>
      </trkpt>
      <trkpt lat="44.51439" lon="6.1452">
        <ele>960.975098</ele>
        <time>2011-11-01T10:30:57Z</time>
      </trkpt>
      <trkpt lat="44.51429" lon="6.14529">
        <ele>960.494385</ele>
        <time>2011-11-01T10:30:59Z</time>
      </trkpt>
      <trkpt lat="44.5141" lon="6.14538">
        <ele>958.091309</ele>
        <time>2011-11-01T10:31:02Z</time>
      </trkpt>
      <trkpt lat="44.51406" lon="6.14539">
        <ele>957.129883</ele>
        <time>2011-11-01T10:31:03Z</time>
      </trkpt>
      <trkpt lat="44.51401" lon="6.14556">
        <ele>956.168457</ele>
        <time>2011-11-01T10:31:07Z</time>
      </trkpt>
      <trkpt lat="44.51421" lon="6.14585">
        <ele>952.803711</ele>
        <time>2011-11-01T10:31:12Z</time>
      </trkpt>
      <trkpt lat="44.51442" lon="6.146">
        <ele>950.400635</ele>
        <time>2011-11-01T10:31:16Z</time>
      </trkpt>
      <trkpt lat="44.51453" lon="6.146">
        <ele>949.919922</ele>
        <time>2011-11-01T10:31:18Z</time>
      </trkpt>
      <trkpt lat="44.51462" lon="6.14596">
        <ele>948.477783</ele>
        <time>2011-11-01T10:31:20Z</time>
      </trkpt>
      <trkpt lat="44.51472" lon="6.14593">
        <ele>946.55542</ele>
        <time>2011-11-01T10:31:22Z</time>
      </trkpt>
      <trkpt lat="44.51468" lon="6.14612">
        <ele>944.1521</ele>
        <time>2011-11-01T10:31:29Z</time>
      </trkpt>
      <trkpt lat="44.51464" lon="6.14613">
        <ele>944.1521</ele>
        <time>2011-11-01T10:31:30Z</time>
      </trkpt>
      <trkpt lat="44.51442" lon="6.14621">
        <ele>943.190674</ele>
        <time>2011-11-01T10:31:34Z</time>
      </trkpt>
      <trkpt lat="44.51421" lon="6.14619">
        <ele>941.748779</ele>
        <time>2011-11-01T10:31:37Z</time>
      </trkpt>
      <trkpt lat="44.51413" lon="6.14616">
        <ele>940.787354</ele>
        <time>2011-11-01T10:31:38Z</time>
      </trkpt>
      <trkpt lat="44.51375" lon="6.146">
        <ele>937.90332</ele>
        <time>2011-11-01T10:31:43Z</time>
      </trkpt>
      <trkpt lat="44.51354" lon="6.14586">
        <ele>935.980713</ele>
        <time>2011-11-01T10:31:46Z</time>
      </trkpt>
      <trkpt lat="44.51342" lon="6.14577">
        <ele>934.538818</ele>
        <time>2011-11-01T10:31:48Z</time>
      </trkpt>
      <trkpt lat="44.51336" lon="6.14573">
        <ele>933.577393</ele>
        <time>2011-11-01T10:31:49Z</time>
      </trkpt>
      <trkpt lat="44.51325" lon="6.14563">
        <ele>932.616211</ele>
        <time>2011-11-01T10:31:51Z</time>
      </trkpt>
      <trkpt lat="44.51317" lon="6.14549">
        <ele>932.135498</ele>
        <time>2011-11-01T10:31:53Z</time>
      </trkpt>
      <trkpt lat="44.51307" lon="6.14529">
        <ele>930.212891</ele>
        <time>2011-11-01T10:31:57Z</time>
      </trkpt>
      <trkpt lat="44.51299" lon="6.14544">
        <ele>928.290283</ele>
        <time>2011-11-01T10:32:04Z</time>
      </trkpt>
      <trkpt lat="44.51302" lon="6.14549">
        <ele>928.290283</ele>
        <time>2011-11-01T10:32:05Z</time>
      </trkpt>
      <trkpt lat="44.51319" lon="6.14576">
        <ele>926.848389</ele>
        <time>2011-11-01T10:32:10Z</time>
      </trkpt>
      <trkpt lat="44.51336" lon="6.14599">
        <ele>924.925781</ele>
        <time>2011-11-01T10:32:14Z</time>
      </trkpt>
      <trkpt lat="44.51373" lon="6.14648">
        <ele>922.041504</ele>
        <time>2011-11-01T10:32:21Z</time>
      </trkpt>
      <trkpt lat="44.51397" lon="6.14675">
        <ele>919.157715</ele>
        <time>2011-11-01T10:32:26Z</time>
      </trkpt>
      <trkpt lat="44.51411" lon="6.14694">
        <ele>917.235107</ele>
        <time>2011-11-01T10:32:30Z</time>
      </trkpt>
      <trkpt lat="44.51422" lon="6.14714">
        <ele>915.793213</ele>
        <time>2011-11-01T10:32:33Z</time>
      </trkpt>
      <trkpt lat="44.51429" lon="6.14743">
        <ele>913.870361</ele>
        <time>2011-11-01T10:32:37Z</time>
      </trkpt>
      <trkpt lat="44.51426" lon="6.14758">
        <ele>913.389893</ele>
        <time>2011-11-01T10:32:39Z</time>
      </trkpt>
      <trkpt lat="44.51421" lon="6.14772">
        <ele>912.90918</ele>
        <time>2011-11-01T10:32:41Z</time>
      </trkpt>
      <trkpt lat="44.51421" lon="6.14791">
        <ele>911.467285</ele>
        <time>2011-11-01T10:32:44Z</time>
      </trkpt>
      <trkpt lat="44.51433" lon="6.14801">
        <ele>910.505859</ele>
        <time>2011-11-01T10:32:47Z</time>
      </trkpt>
      <trkpt lat="44.51476" lon="6.14834">
        <ele>907.141113</ele>
        <time>2011-11-01T10:32:56Z</time>
      </trkpt>
      <trkpt lat="44.51492" lon="6.14847">
        <ele>905.699219</ele>
        <time>2011-11-01T10:32:59Z</time>
      </trkpt>
      <trkpt lat="44.51521" lon="6.14834">
        <ele>903.295898</ele>
        <time>2011-11-01T10:33:06Z</time>
      </trkpt>
      <trkpt lat="44.51525" lon="6.14826">
        <ele>903.295898</ele>
        <time>2011-11-01T10:33:07Z</time>
      </trkpt>
      <trkpt lat="44.51544" lon="6.14795">
        <ele>900.892578</ele>
        <time>2011-11-01T10:33:11Z</time>
      </trkpt>
      <trkpt lat="44.51558" lon="6.14777">
        <ele>898.969971</ele>
        <time>2011-11-01T10:33:14Z</time>
      </trkpt>
      <trkpt lat="44.51565" lon="6.14765">
        <ele>898.489258</ele>
        <time>2011-11-01T10:33:16Z</time>
      </trkpt>
      <trkpt lat="44.51579" lon="6.14743">
        <ele>895.605469</ele>
        <time>2011-11-01T10:33:21Z</time>
      </trkpt>
      <trkpt lat="44.51594" lon="6.14758">
        <ele>895.124756</ele>
        <time>2011-11-01T10:33:27Z</time>
      </trkpt>
      <trkpt lat="44.51598" lon="6.14812">
        <ele>896.566895</ele>
        <time>2011-11-01T10:33:43Z</time>
      </trkpt>
      <trkpt lat="44.51597" lon="6.14857">
        <ele>899.450684</ele>
        <time>2011-11-01T10:34:00Z</time>
      </trkpt>
      <trkpt lat="44.51617" lon="6.14877">
        <ele>902.334473</ele>
        <time>2011-11-01T10:34:15Z</time>
      </trkpt>
      <trkpt lat="44.51639" lon="6.14876">
        <ele>903.776611</ele>
        <time>2011-11-01T10:34:29Z</time>
      </trkpt>
      <trkpt lat="44.51643" lon="6.14875">
        <ele>904.257324</ele>
        <time>2011-11-01T10:34:31Z</time>
      </trkpt>
      <trkpt lat="44.51659" lon="6.14873">
        <ele>905.699219</ele>
        <time>2011-11-01T10:34:39Z</time>
      </trkpt>
      <trkpt lat="44.51663" lon="6.14873">
        <ele>906.6604</ele>
        <time>2011-11-01T10:34:42Z</time>
      </trkpt>
      <trkpt lat="44.51697" lon="6.14872">
        <ele>909.063965</ele>
        <time>2011-11-01T10:35:00Z</time>
      </trkpt>
      <trkpt lat="44.51728" lon="6.14861">
        <ele>909.544678</ele>
        <time>2011-11-01T10:35:15Z</time>
      </trkpt>
      <trkpt lat="44.51744" lon="6.14852">
        <ele>908.583252</ele>
        <time>2011-11-01T10:35:20Z</time>
      </trkpt>
      <trkpt lat="44.51757" lon="6.14883">
        <ele>908.583252</ele>
        <time>2011-11-01T10:35:26Z</time>
      </trkpt>
      <trkpt lat="44.51746" lon="6.14915">
        <ele>907.141113</ele>
        <time>2011-11-01T10:35:32Z</time>
      </trkpt>
      <trkpt lat="44.51755" lon="6.14951">
        <ele>905.699219</ele>
        <time>2011-11-01T10:35:40Z</time>
      </trkpt>
      <trkpt lat="44.51765" lon="6.14947">
        <ele>904.257324</ele>
        <time>2011-11-01T10:35:42Z</time>
      </trkpt>
      <trkpt lat="44.51791" lon="6.14949">
        <ele>901.373291</ele>
        <time>2011-11-01T10:35:47Z</time>
      </trkpt>
      <trkpt lat="44.51793" lon="6.15004">
        <ele>899.450684</ele>
        <time>2011-11-01T10:35:54Z</time>
      </trkpt>
      <trkpt lat="44.51789" lon="6.1501">
        <ele>899.450684</ele>
        <time>2011-11-01T10:35:55Z</time>
      </trkpt>
      <trkpt lat="44.51786" lon="6.1504">
        <ele>899.931396</ele>
        <time>2011-11-01T10:36:02Z</time>
      </trkpt>
      <trkpt lat="44.51822" lon="6.15101">
        <ele>898.489258</ele>
        <time>2011-11-01T10:36:18Z</time>
      </trkpt>
      <trkpt lat="44.51826" lon="6.15107">
        <ele>898.489258</ele>
        <time>2011-11-01T10:36:19Z</time>
      </trkpt>
      <trkpt lat="44.51853" lon="6.15123">
        <ele>896.566895</ele>
        <time>2011-11-01T10:36:25Z</time>
      </trkpt>
      <trkpt lat="44.51869" lon="6.15123">
        <ele>896.566895</ele>
        <time>2011-11-01T10:36:28Z</time>
      </trkpt>
      <trkpt lat="44.51886" lon="6.15148">
        <ele>898.008789</ele>
        <time>2011-11-01T10:36:35Z</time>
      </trkpt>
      <trkpt lat="44.51899" lon="6.1522">
        <ele>898.008789</ele>
        <time>2011-11-01T10:36:50Z</time>
      </trkpt>
      <trkpt lat="44.5193" lon="6.15251">
        <ele>898.489258</ele>
        <time>2011-11-01T10:37:02Z</time>
      </trkpt>
      <trkpt lat="44.51983" lon="6.15279">
        <ele>899.450684</ele>
        <time>2011-11-01T10:37:21Z</time>
      </trkpt>
      <trkpt lat="44.52031" lon="6.15309">
        <ele>900.892578</ele>
        <time>2011-11-01T10:37:42Z</time>
      </trkpt>
      <trkpt lat="44.5207" lon="6.15344">
        <ele>897.528076</ele>
        <time>2011-11-01T10:37:51Z</time>
      </trkpt>
      <trkpt lat="44.5211" lon="6.1539">
        <ele>894.163574</ele>
        <time>2011-11-01T10:38:02Z</time>
      </trkpt>
      <trkpt lat="44.52122" lon="6.15424">
        <ele>891.76001</ele>
        <time>2011-11-01T10:38:12Z</time>
      </trkpt>
      <trkpt lat="44.52101" lon="6.15488">
        <ele>888.876221</ele>
        <time>2011-11-01T10:38:21Z</time>
      </trkpt>
      <trkpt lat="44.52094" lon="6.15574">
        <ele>889.356689</ele>
        <time>2011-11-01T10:38:33Z</time>
      </trkpt>
      <trkpt lat="44.52085" lon="6.15656">
        <ele>889.837402</ele>
        <time>2011-11-01T10:38:47Z</time>
      </trkpt>
      <trkpt lat="44.52079" lon="6.1573">
        <ele>891.279297</ele>
        <time>2011-11-01T10:39:02Z</time>
      </trkpt>
      <trkpt lat="44.52061" lon="6.15781">
        <ele>888.876221</ele>
        <time>2011-11-01T10:39:13Z</time>
      </trkpt>
      <trkpt lat="44.52037" lon="6.15825">
        <ele>885.511475</ele>
        <time>2011-11-01T10:39:19Z</time>
      </trkpt>
      <trkpt lat="44.52032" lon="6.15831">
        <ele>885.511475</ele>
        <time>2011-11-01T10:39:20Z</time>
      </trkpt>
      <trkpt lat="44.52024" lon="6.15844">
        <ele>884.06958</ele>
        <time>2011-11-01T10:39:22Z</time>
      </trkpt>
      <trkpt lat="44.51993" lon="6.15868">
        <ele>881.66626</ele>
        <time>2011-11-01T10:39:27Z</time>
      </trkpt>
      <trkpt lat="44.51979" lon="6.15877">
        <ele>880.224365</ele>
        <time>2011-11-01T10:39:29Z</time>
      </trkpt>
      <trkpt lat="44.51965" lon="6.15885">
        <ele>879.262939</ele>
        <time>2011-11-01T10:39:31Z</time>
      </trkpt>
      <trkpt lat="44.51949" lon="6.15897">
        <ele>877.821045</ele>
        <time>2011-11-01T10:39:33Z</time>
      </trkpt>
      <trkpt lat="44.51928" lon="6.15919">
        <ele>875.41748</ele>
        <time>2011-11-01T10:39:36Z</time>
      </trkpt>
      <trkpt lat="44.5192" lon="6.15926">
        <ele>873.975586</ele>
        <time>2011-11-01T10:39:37Z</time>
      </trkpt>
      <trkpt lat="44.51897" lon="6.15941">
        <ele>872.533691</ele>
        <time>2011-11-01T10:39:40Z</time>
      </trkpt>
      <trkpt lat="44.5189" lon="6.15944">
        <ele>870.611084</ele>
        <time>2011-11-01T10:39:41Z</time>
      </trkpt>
      <trkpt lat="44.51877" lon="6.15947">
        <ele>869.649902</ele>
        <time>2011-11-01T10:39:43Z</time>
      </trkpt>
      <trkpt lat="44.51844" lon="6.1594">
        <ele>867.246582</ele>
        <time>2011-11-01T10:39:47Z</time>
      </trkpt>
      <trkpt lat="44.51816" lon="6.15926">
        <ele>864.843262</ele>
        <time>2011-11-01T10:39:50Z</time>
      </trkpt>
      <trkpt lat="44.51796" lon="6.15919">
        <ele>863.401367</ele>
        <time>2011-11-01T10:39:52Z</time>
      </trkpt>
      <trkpt lat="44.51777" lon="6.1591">
        <ele>861.959473</ele>
        <time>2011-11-01T10:39:54Z</time>
      </trkpt>
      <trkpt lat="44.51759" lon="6.15904">
        <ele>859.075195</ele>
        <time>2011-11-01T10:39:56Z</time>
      </trkpt>
      <trkpt lat="44.51749" lon="6.159">
        <ele>859.075195</ele>
        <time>2011-11-01T10:39:57Z</time>
      </trkpt>
      <trkpt lat="44.51731" lon="6.15891">
        <ele>857.152588</ele>
        <time>2011-11-01T10:39:59Z</time>
      </trkpt>
      <trkpt lat="44.51715" lon="6.15881">
        <ele>855.22998</ele>
        <time>2011-11-01T10:40:01Z</time>
      </trkpt>
      <trkpt lat="44.51708" lon="6.15876">
        <ele>853.307373</ele>
        <time>2011-11-01T10:40:02Z</time>
      </trkpt>
      <trkpt lat="44.51692" lon="6.1587">
        <ele>851.865479</ele>
        <time>2011-11-01T10:40:04Z</time>
      </trkpt>
      <trkpt lat="44.51674" lon="6.15868">
        <ele>850.904053</ele>
        <time>2011-11-01T10:40:06Z</time>
      </trkpt>
      <trkpt lat="44.51657" lon="6.15862">
        <ele>849.462158</ele>
        <time>2011-11-01T10:40:08Z</time>
      </trkpt>
      <trkpt lat="44.51643" lon="6.15853">
        <ele>846.578369</ele>
        <time>2011-11-01T10:40:10Z</time>
      </trkpt>
      <trkpt lat="44.51606" lon="6.15848">
        <ele>844.175049</ele>
        <time>2011-11-01T10:40:15Z</time>
      </trkpt>
      <trkpt lat="44.51569" lon="6.15836">
        <ele>839.848877</ele>
        <time>2011-11-01T10:40:19Z</time>
      </trkpt>
      <trkpt lat="44.51541" lon="6.15814">
        <ele>838.887695</ele>
        <time>2011-11-01T10:40:22Z</time>
      </trkpt>
      <trkpt lat="44.51503" lon="6.15778">
        <ele>833.119629</ele>
        <time>2011-11-01T10:40:26Z</time>
      </trkpt>
      <trkpt lat="44.51494" lon="6.15772">
        <ele>833.119629</ele>
        <time>2011-11-01T10:40:27Z</time>
      </trkpt>
      <trkpt lat="44.51479" lon="6.15761">
        <ele>832.158447</ele>
        <time>2011-11-01T10:40:29Z</time>
      </trkpt>
      <trkpt lat="44.5146" lon="6.15737">
        <ele>829.755127</ele>
        <time>2011-11-01T10:40:33Z</time>
      </trkpt>
      <trkpt lat="44.51444" lon="6.1575">
        <ele>827.832275</ele>
        <time>2011-11-01T10:40:39Z</time>
      </trkpt>
      <trkpt lat="44.51451" lon="6.15762">
        <ele>827.832275</ele>
        <time>2011-11-01T10:40:41Z</time>
      </trkpt>
      <trkpt lat="44.51494" lon="6.15805">
        <ele>824.948486</ele>
        <time>2011-11-01T10:40:48Z</time>
      </trkpt>
      <trkpt lat="44.51507" lon="6.15824">
        <ele>823.506592</ele>
        <time>2011-11-01T10:40:50Z</time>
      </trkpt>
      <trkpt lat="44.51521" lon="6.15845">
        <ele>822.064453</ele>
        <time>2011-11-01T10:40:52Z</time>
      </trkpt>
      <trkpt lat="44.51536" lon="6.15865">
        <ele>819.180664</ele>
        <time>2011-11-01T10:40:54Z</time>
      </trkpt>
      <trkpt lat="44.51543" lon="6.15875">
        <ele>819.180664</ele>
        <time>2011-11-01T10:40:55Z</time>
      </trkpt>
      <trkpt lat="44.51556" lon="6.15892">
        <ele>817.258057</ele>
        <time>2011-11-01T10:40:57Z</time>
      </trkpt>
      <trkpt lat="44.51563" lon="6.15899">
        <ele>815.816162</ele>
        <time>2011-11-01T10:40:58Z</time>
      </trkpt>
      <trkpt lat="44.51589" lon="6.15915">
        <ele>814.854736</ele>
        <time>2011-11-01T10:41:01Z</time>
      </trkpt>
      <trkpt lat="44.51608" lon="6.15924">
        <ele>811.970703</ele>
        <time>2011-11-01T10:41:03Z</time>
      </trkpt>
      <trkpt lat="44.51633" lon="6.15953">
        <ele>810.528564</ele>
        <time>2011-11-01T10:41:06Z</time>
      </trkpt>
      <trkpt lat="44.5167" lon="6.15989">
        <ele>805.722168</ele>
        <time>2011-11-01T10:41:10Z</time>
      </trkpt>
      <trkpt lat="44.51679" lon="6.15998">
        <ele>805.722168</ele>
        <time>2011-11-01T10:41:11Z</time>
      </trkpt>
      <trkpt lat="44.51696" lon="6.16015">
        <ele>803.799561</ele>
        <time>2011-11-01T10:41:13Z</time>
      </trkpt>
      <trkpt lat="44.51712" lon="6.16032">
        <ele>802.357422</ele>
        <time>2011-11-01T10:41:15Z</time>
      </trkpt>
      <trkpt lat="44.51728" lon="6.16048">
        <ele>798.99292</ele>
        <time>2011-11-01T10:41:17Z</time>
      </trkpt>
      <trkpt lat="44.51737" lon="6.16056">
        <ele>798.99292</ele>
        <time>2011-11-01T10:41:18Z</time>
      </trkpt>
      <trkpt lat="44.51755" lon="6.16073">
        <ele>797.551025</ele>
        <time>2011-11-01T10:41:20Z</time>
      </trkpt>
      <trkpt lat="44.51773" lon="6.16085">
        <ele>796.109131</ele>
        <time>2011-11-01T10:41:22Z</time>
      </trkpt>
      <trkpt lat="44.51792" lon="6.16094">
        <ele>792.744385</ele>
        <time>2011-11-01T10:41:24Z</time>
      </trkpt>
      <trkpt lat="44.51801" lon="6.16098">
        <ele>792.744385</ele>
        <time>2011-11-01T10:41:25Z</time>
      </trkpt>
      <trkpt lat="44.51817" lon="6.16106">
        <ele>790.821533</ele>
        <time>2011-11-01T10:41:27Z</time>
      </trkpt>
      <trkpt lat="44.51834" lon="6.16116">
        <ele>789.379639</ele>
        <time>2011-11-01T10:41:29Z</time>
      </trkpt>
      <trkpt lat="44.51853" lon="6.16143">
        <ele>786.49585</ele>
        <time>2011-11-01T10:41:32Z</time>
      </trkpt>
      <trkpt lat="44.51865" lon="6.16163">
        <ele>785.053955</ele>
        <time>2011-11-01T10:41:34Z</time>
      </trkpt>
      <trkpt lat="44.51879" lon="6.16179">
        <ele>783.611816</ele>
        <time>2011-11-01T10:41:36Z</time>
      </trkpt>
      <trkpt lat="44.51903" lon="6.16199">
        <ele>781.20874</ele>
        <time>2011-11-01T10:41:39Z</time>
      </trkpt>
      <trkpt lat="44.5191" lon="6.16204">
        <ele>778.805176</ele>
        <time>2011-11-01T10:41:40Z</time>
      </trkpt>
      <trkpt lat="44.51942" lon="6.16202">
        <ele>776.401855</ele>
        <time>2011-11-01T10:41:44Z</time>
      </trkpt>
      <trkpt lat="44.51958" lon="6.16195">
        <ele>775.44043</ele>
        <time>2011-11-01T10:41:46Z</time>
      </trkpt>
      <trkpt lat="44.51976" lon="6.16197">
        <ele>774.479248</ele>
        <time>2011-11-01T10:41:48Z</time>
      </trkpt>
      <trkpt lat="44.51993" lon="6.16202">
        <ele>773.998535</ele>
        <time>2011-11-01T10:41:50Z</time>
      </trkpt>
      <trkpt lat="44.52009" lon="6.16195">
        <ele>772.075928</ele>
        <time>2011-11-01T10:41:52Z</time>
      </trkpt>
      <trkpt lat="44.52032" lon="6.16189">
        <ele>770.15332</ele>
        <time>2011-11-01T10:41:55Z</time>
      </trkpt>
      <trkpt lat="44.52045" lon="6.16187">
        <ele>768.711426</ele>
        <time>2011-11-01T10:41:57Z</time>
      </trkpt>
      <trkpt lat="44.52057" lon="6.1621">
        <ele>766.308105</ele>
        <time>2011-11-01T10:42:02Z</time>
      </trkpt>
      <trkpt lat="44.52051" lon="6.16226">
        <ele>765.827637</ele>
        <time>2011-11-01T10:42:04Z</time>
      </trkpt>
      <trkpt lat="44.52045" lon="6.16244">
        <ele>765.346924</ele>
        <time>2011-11-01T10:42:06Z</time>
      </trkpt>
      <trkpt lat="44.52038" lon="6.16275">
        <ele>763.424072</ele>
        <time>2011-11-01T10:42:09Z</time>
      </trkpt>
      <trkpt lat="44.52033" lon="6.163">
        <ele>761.982178</ele>
        <time>2011-11-01T10:42:11Z</time>
      </trkpt>
      <trkpt lat="44.52029" lon="6.16325">
        <ele>761.020752</ele>
        <time>2011-11-01T10:42:13Z</time>
      </trkpt>
      <trkpt lat="44.52021" lon="6.16367">
        <ele>758.617432</ele>
        <time>2011-11-01T10:42:16Z</time>
      </trkpt>
      <trkpt lat="44.52015" lon="6.16395">
        <ele>757.175537</ele>
        <time>2011-11-01T10:42:18Z</time>
      </trkpt>
      <trkpt lat="44.52006" lon="6.16451">
        <ele>753.330322</ele>
        <time>2011-11-01T10:42:22Z</time>
      </trkpt>
      <trkpt lat="44.52004" lon="6.16463">
        <ele>753.330322</ele>
        <time>2011-11-01T10:42:23Z</time>
      </trkpt>
      <trkpt lat="44.51994" lon="6.16516">
        <ele>750.927002</ele>
        <time>2011-11-01T10:42:27Z</time>
      </trkpt>
      <trkpt lat="44.51983" lon="6.16574">
        <ele>747.081543</ele>
        <time>2011-11-01T10:42:31Z</time>
      </trkpt>
      <trkpt lat="44.5198" lon="6.16587">
        <ele>747.081543</ele>
        <time>2011-11-01T10:42:32Z</time>
      </trkpt>
      <trkpt lat="44.51975" lon="6.16612">
        <ele>745.158936</ele>
        <time>2011-11-01T10:42:34Z</time>
      </trkpt>
      <trkpt lat="44.51972" lon="6.16635">
        <ele>744.197754</ele>
        <time>2011-11-01T10:42:36Z</time>
      </trkpt>
      <trkpt lat="44.51966" lon="6.1667">
        <ele>741.794434</ele>
        <time>2011-11-01T10:42:39Z</time>
      </trkpt>
      <trkpt lat="44.5196" lon="6.16701">
        <ele>738.910645</ele>
        <time>2011-11-01T10:42:42Z</time>
      </trkpt>
      <trkpt lat="44.51954" lon="6.16738">
        <ele>736.507324</ele>
        <time>2011-11-01T10:42:46Z</time>
      </trkpt>
      <trkpt lat="44.51946" lon="6.16775">
        <ele>733.623291</ele>
        <time>2011-11-01T10:42:52Z</time>
      </trkpt>
      <trkpt lat="44.51942" lon="6.16793">
        <ele>732.181396</ele>
        <time>2011-11-01T10:42:59Z</time>
      </trkpt>
      <trkpt lat="44.51942" lon="6.16793">
        <ele>732.181396</ele>
        <time>2011-11-01T10:43:23Z</time>
      </trkpt>
      <trkpt lat="44.51942" lon="6.16793">
        <ele>732.662109</ele>
        <time>2011-11-01T10:44:27Z</time>
      </trkpt>
      <trkpt lat="44.51942" lon="6.16793">
        <ele>732.662109</ele>
        <time>2011-11-01T10:44:48Z</time>
      </trkpt>
      <trkpt lat="44.5194" lon="6.16805">
        <ele>732.662109</ele>
        <time>2011-11-01T10:44:51Z</time>
      </trkpt>
      <trkpt lat="44.51936" lon="6.16825">
        <ele>732.662109</ele>
        <time>2011-11-01T10:44:56Z</time>
      </trkpt>
      <trkpt lat="44.51929" lon="6.16866">
        <ele>731.700439</ele>
        <time>2011-11-01T10:45:03Z</time>
      </trkpt>
      <trkpt lat="44.51926" lon="6.16885">
        <ele>731.700439</ele>
        <time>2011-11-01T10:45:06Z</time>
      </trkpt>
      <trkpt lat="44.51912" lon="6.16964">
        <ele>733.142578</ele>
        <time>2011-11-01T10:45:21Z</time>
      </trkpt>
      <trkpt lat="44.51902" lon="6.17019">
        <ele>736.507324</ele>
        <time>2011-11-01T10:45:38Z</time>
      </trkpt>
      <trkpt lat="44.51893" lon="6.17071">
        <ele>739.871826</ele>
        <time>2011-11-01T10:45:55Z</time>
      </trkpt>
      <trkpt lat="44.51887" lon="6.17098">
        <ele>741.313721</ele>
        <time>2011-11-01T10:46:05Z</time>
      </trkpt>
      <trkpt lat="44.51919" lon="6.17112">
        <ele>741.794434</ele>
        <time>2011-11-01T10:46:16Z</time>
      </trkpt>
      <trkpt lat="44.51986" lon="6.1715">
        <ele>742.275146</ele>
        <time>2011-11-01T10:46:37Z</time>
      </trkpt>
      <trkpt lat="44.52046" lon="6.17192">
        <ele>743.236328</ele>
        <time>2011-11-01T10:46:55Z</time>
      </trkpt>
      <trkpt lat="44.52079" lon="6.17218">
        <ele>743.717041</ele>
        <time>2011-11-01T10:47:04Z</time>
      </trkpt>
      <trkpt lat="44.52156" lon="6.17304">
        <ele>744.678223</ele>
        <time>2011-11-01T10:47:28Z</time>
      </trkpt>
      <trkpt lat="44.52242" lon="6.17401">
        <ele>746.601074</ele>
        <time>2011-11-01T10:47:56Z</time>
      </trkpt>
      <trkpt lat="44.52325" lon="6.17516">
        <ele>746.120361</ele>
        <time>2011-11-01T10:48:21Z</time>
      </trkpt>
      <trkpt lat="44.52406" lon="6.17617">
        <ele>745.158936</ele>
        <time>2011-11-01T10:48:41Z</time>
      </trkpt>
      <trkpt lat="44.52517" lon="6.1772">
        <ele>744.678223</ele>
        <time>2011-11-01T10:49:03Z</time>
      </trkpt>
      <trkpt lat="44.52588" lon="6.17784">
        <ele>745.639648</ele>
        <time>2011-11-01T10:49:20Z</time>
      </trkpt>
      <trkpt lat="44.52683" lon="6.17898">
        <ele>747.081543</ele>
        <time>2011-11-01T10:49:47Z</time>
      </trkpt>
      <trkpt lat="44.52745" lon="6.17998">
        <ele>748.523682</ele>
        <time>2011-11-01T10:50:08Z</time>
      </trkpt>
      <trkpt lat="44.52821" lon="6.18044">
        <ele>749.485107</ele>
        <time>2011-11-01T10:50:26Z</time>
      </trkpt>
      <trkpt lat="44.52829" lon="6.1805">
        <ele>749.485107</ele>
        <time>2011-11-01T10:50:28Z</time>
      </trkpt>
      <trkpt lat="44.52897" lon="6.18125">
        <ele>750.927002</ele>
        <time>2011-11-01T10:50:47Z</time>
      </trkpt>
      <trkpt lat="44.52946" lon="6.1823">
        <ele>753.330322</ele>
        <time>2011-11-01T10:51:09Z</time>
      </trkpt>
      <trkpt lat="44.52994" lon="6.18324">
        <ele>756.214111</ele>
        <time>2011-11-01T10:51:30Z</time>
      </trkpt>
      <trkpt lat="44.53063" lon="6.18388">
        <ele>758.136963</ele>
        <time>2011-11-01T10:51:51Z</time>
      </trkpt>
      <trkpt lat="44.53156" lon="6.18464">
        <ele>758.617432</ele>
        <time>2011-11-01T10:52:14Z</time>
      </trkpt>
      <trkpt lat="44.53245" lon="6.18559">
        <ele>759.578857</ele>
        <time>2011-11-01T10:52:36Z</time>
      </trkpt>
      <trkpt lat="44.53324" lon="6.18647">
        <ele>760.059326</ele>
        <time>2011-11-01T10:52:56Z</time>
      </trkpt>
      <trkpt lat="44.53426" lon="6.18753">
        <ele>760.540039</ele>
        <time>2011-11-01T10:53:22Z</time>
      </trkpt>
      <trkpt lat="44.53551" lon="6.18868">
        <ele>761.020752</ele>
        <time>2011-11-01T10:53:51Z</time>
      </trkpt>
      <trkpt lat="44.53611" lon="6.18909">
        <ele>760.540039</ele>
        <time>2011-11-01T10:54:03Z</time>
      </trkpt>
      <trkpt lat="44.53668" lon="6.18957">
        <ele>760.540039</ele>
        <time>2011-11-01T10:54:14Z</time>
      </trkpt>
      <trkpt lat="44.53742" lon="6.19044">
        <ele>759.578857</ele>
        <time>2011-11-01T10:54:31Z</time>
      </trkpt>
      <trkpt lat="44.53801" lon="6.1912">
        <ele>762.462646</ele>
        <time>2011-11-01T10:54:49Z</time>
      </trkpt>
      <trkpt lat="44.5385" lon="6.19193">
        <ele>765.346924</ele>
        <time>2011-11-01T10:55:10Z</time>
      </trkpt>
      <trkpt lat="44.53909" lon="6.19259">
        <ele>767.75</ele>
        <time>2011-11-01T10:55:33Z</time>
      </trkpt>
      <trkpt lat="44.53976" lon="6.19294">
        <ele>769.192139</ele>
        <time>2011-11-01T10:55:54Z</time>
      </trkpt>
      <trkpt lat="44.54063" lon="6.19332">
        <ele>770.15332</ele>
        <time>2011-11-01T10:56:17Z</time>
      </trkpt>
      <trkpt lat="44.54139" lon="6.19406">
        <ele>770.634033</ele>
        <time>2011-11-01T10:56:37Z</time>
      </trkpt>
      <trkpt lat="44.54197" lon="6.19505">
        <ele>771.114746</ele>
        <time>2011-11-01T10:56:58Z</time>
      </trkpt>
      <trkpt lat="44.54274" lon="6.1963">
        <ele>773.518066</ele>
        <time>2011-11-01T10:57:26Z</time>
      </trkpt>
      <trkpt lat="44.54341" lon="6.19689">
        <ele>775.921143</ele>
        <time>2011-11-01T10:57:47Z</time>
      </trkpt>
      <trkpt lat="44.54415" lon="6.19723">
        <ele>777.84375</ele>
        <time>2011-11-01T10:58:08Z</time>
      </trkpt>
      <trkpt lat="44.54493" lon="6.1978">
        <ele>780.728027</ele>
        <time>2011-11-01T10:58:31Z</time>
      </trkpt>
      <trkpt lat="44.54575" lon="6.19854">
        <ele>780.247314</ele>
        <time>2011-11-01T10:58:53Z</time>
      </trkpt>
      <trkpt lat="44.5466" lon="6.19921">
        <ele>781.689209</ele>
        <time>2011-11-01T10:59:15Z</time>
      </trkpt>
      <trkpt lat="44.54771" lon="6.20004">
        <ele>783.611816</ele>
        <time>2011-11-01T10:59:46Z</time>
      </trkpt>
      <trkpt lat="44.54883" lon="6.20085">
        <ele>786.015137</ele>
        <time>2011-11-01T11:00:17Z</time>
      </trkpt>
      <trkpt lat="44.54967" lon="6.20148">
        <ele>787.457031</ele>
        <time>2011-11-01T11:00:43Z</time>
      </trkpt>
      <trkpt lat="44.55024" lon="6.20193">
        <ele>789.860352</ele>
        <time>2011-11-01T11:01:01Z</time>
      </trkpt>
      <trkpt lat="44.55062" lon="6.20172">
        <ele>789.379639</ele>
        <time>2011-11-01T11:01:14Z</time>
      </trkpt>
      <trkpt lat="44.55086" lon="6.20163">
        <ele>789.860352</ele>
        <time>2011-11-01T11:01:27Z</time>
      </trkpt>
      <trkpt lat="44.55086" lon="6.20163">
        <ele>789.379639</ele>
        <time>2011-11-01T11:01:50Z</time>
      </trkpt>
      <trkpt lat="44.55086" lon="6.20163">
        <ele>789.379639</ele>
        <time>2011-11-01T11:02:48Z</time>
      </trkpt>
      <trkpt lat="44.55086" lon="6.20163">
        <ele>789.860352</ele>
        <time>2011-11-01T11:04:06Z</time>
      </trkpt>
      <trkpt lat="44.55086" lon="6.20163">
        <ele>789.860352</ele>
        <time>2011-11-01T11:07:01Z</time>
      </trkpt>
      <trkpt lat="44.55086" lon="6.20163">
        <ele>789.860352</ele>
        <time>2011-11-01T11:07:19Z</time>
      </trkpt>
      <trkpt lat="44.55094" lon="6.2016">
        <ele>789.860352</ele>
        <time>2011-11-01T11:07:24Z</time>
      </trkpt>
      <trkpt lat="44.5514" lon="6.20146">
        <ele>790.821533</ele>
        <time>2011-11-01T11:07:42Z</time>
      </trkpt>
      <trkpt lat="44.55194" lon="6.20131">
        <ele>792.263672</ele>
        <time>2011-11-01T11:08:04Z</time>
      </trkpt>
      <trkpt lat="44.55256" lon="6.20111">
        <ele>795.628174</ele>
        <time>2011-11-01T11:08:29Z</time>
      </trkpt>
      <trkpt lat="44.55312" lon="6.20095">
        <ele>798.031738</ele>
        <time>2011-11-01T11:08:53Z</time>
      </trkpt>
      <trkpt lat="44.55352" lon="6.20086">
        <ele>801.39624</ele>
        <time>2011-11-01T11:09:13Z</time>
      </trkpt>
      <trkpt lat="44.55391" lon="6.20082">
        <ele>804.760742</ele>
        <time>2011-11-01T11:09:32Z</time>
      </trkpt>
      <trkpt lat="44.55429" lon="6.20088">
        <ele>807.644775</ele>
        <time>2011-11-01T11:09:52Z</time>
      </trkpt>
      <trkpt lat="44.55456" lon="6.20084">
        <ele>810.528564</ele>
        <time>2011-11-01T11:10:08Z</time>
      </trkpt>
      <trkpt lat="44.5549" lon="6.2006">
        <ele>812.932129</ele>
        <time>2011-11-01T11:10:27Z</time>
      </trkpt>
      <trkpt lat="44.5552" lon="6.20026">
        <ele>815.335449</ele>
        <time>2011-11-01T11:10:47Z</time>
      </trkpt>
      <trkpt lat="44.55547" lon="6.20005">
        <ele>818.699951</ele>
        <time>2011-11-01T11:11:04Z</time>
      </trkpt>
      <trkpt lat="44.55557" lon="6.20001">
        <ele>819.180664</ele>
        <time>2011-11-01T11:11:10Z</time>
      </trkpt>
      <trkpt lat="44.55599" lon="6.19993">
        <ele>822.064453</ele>
        <time>2011-11-01T11:11:32Z</time>
      </trkpt>
      <trkpt lat="44.5564" lon="6.19987">
        <ele>823.025879</ele>
        <time>2011-11-01T11:11:50Z</time>
      </trkpt>
      <trkpt lat="44.55683" lon="6.20003">
        <ele>824.467773</ele>
        <time>2011-11-01T11:12:08Z</time>
      </trkpt>
      <trkpt lat="44.55716" lon="6.20019">
        <ele>826.390381</ele>
        <time>2011-11-01T11:12:24Z</time>
      </trkpt>
      <trkpt lat="44.55768" lon="6.20013">
        <ele>825.909668</ele>
        <time>2011-11-01T11:12:39Z</time>
      </trkpt>
      <trkpt lat="44.55777" lon="6.20011">
        <ele>825.909668</ele>
        <time>2011-11-01T11:12:41Z</time>
      </trkpt>
      <trkpt lat="44.55857" lon="6.19985">
        <ele>826.390381</ele>
        <time>2011-11-01T11:13:01Z</time>
      </trkpt>
      <trkpt lat="44.55916" lon="6.19984">
        <ele>828.313232</ele>
        <time>2011-11-01T11:13:20Z</time>
      </trkpt>
      <trkpt lat="44.55964" lon="6.19992">
        <ele>830.716553</ele>
        <time>2011-11-01T11:13:38Z</time>
      </trkpt>
      <trkpt lat="44.5601" lon="6.19988">
        <ele>834.081055</ele>
        <time>2011-11-01T11:13:56Z</time>
      </trkpt>
      <trkpt lat="44.56046" lon="6.19971">
        <ele>836.964844</ele>
        <time>2011-11-01T11:14:12Z</time>
      </trkpt>
      <trkpt lat="44.56079" lon="6.19955">
        <ele>840.32959</ele>
        <time>2011-11-01T11:14:28Z</time>
      </trkpt>
      <trkpt lat="44.56116" lon="6.19937">
        <ele>843.694092</ele>
        <time>2011-11-01T11:14:46Z</time>
      </trkpt>
      <trkpt lat="44.56156" lon="6.19911">
        <ele>846.578369</ele>
        <time>2011-11-01T11:15:07Z</time>
      </trkpt>
      <trkpt lat="44.56171" lon="6.19899">
        <ele>848.020264</ele>
        <time>2011-11-01T11:15:15Z</time>
      </trkpt>
      <trkpt lat="44.56205" lon="6.19871">
        <ele>850.423584</ele>
        <time>2011-11-01T11:15:33Z</time>
      </trkpt>
      <trkpt lat="44.56237" lon="6.19846">
        <ele>853.788086</ele>
        <time>2011-11-01T11:15:49Z</time>
      </trkpt>
      <trkpt lat="44.56274" lon="6.19812">
        <ele>856.671875</ele>
        <time>2011-11-01T11:16:09Z</time>
      </trkpt>
      <trkpt lat="44.56286" lon="6.19793">
        <ele>857.152588</ele>
        <time>2011-11-01T11:16:17Z</time>
      </trkpt>
      <trkpt lat="44.56305" lon="6.19733">
        <ele>858.594482</ele>
        <time>2011-11-01T11:16:37Z</time>
      </trkpt>
      <trkpt lat="44.56329" lon="6.19688">
        <ele>859.555908</ele>
        <time>2011-11-01T11:16:54Z</time>
      </trkpt>
      <trkpt lat="44.56345" lon="6.19704">
        <ele>859.555908</ele>
        <time>2011-11-01T11:17:02Z</time>
      </trkpt>
      <trkpt lat="44.56331" lon="6.19767">
        <ele>859.555908</ele>
        <time>2011-11-01T11:17:16Z</time>
      </trkpt>
      <trkpt lat="44.56336" lon="6.19807">
        <ele>859.075195</ele>
        <time>2011-11-01T11:17:26Z</time>
      </trkpt>
      <trkpt lat="44.56385" lon="6.19814">
        <ele>861.959473</ele>
        <time>2011-11-01T11:17:43Z</time>
      </trkpt>
      <trkpt lat="44.56408" lon="6.19825">
        <ele>861.47876</ele>
        <time>2011-11-01T11:17:53Z</time>
      </trkpt>
      <trkpt lat="44.5643" lon="6.19835">
        <ele>861.47876</ele>
        <time>2011-11-01T11:18:01Z</time>
      </trkpt>
      <trkpt lat="44.56459" lon="6.1984">
        <ele>861.959473</ele>
        <time>2011-11-01T11:18:09Z</time>
      </trkpt>
      <trkpt lat="44.5648" lon="6.19825">
        <ele>861.47876</ele>
        <time>2011-11-01T11:18:20Z</time>
      </trkpt>
      <trkpt lat="44.56506" lon="6.19748">
        <ele>861.47876</ele>
        <time>2011-11-01T11:18:38Z</time>
      </trkpt>
      <trkpt lat="44.56568" lon="6.19652">
        <ele>859.555908</ele>
        <time>2011-11-01T11:19:04Z</time>
      </trkpt>
      <trkpt lat="44.56602" lon="6.19591">
        <ele>860.517334</ele>
        <time>2011-11-01T11:19:21Z</time>
      </trkpt>
      <trkpt lat="44.56627" lon="6.19575">
        <ele>859.555908</ele>
        <time>2011-11-01T11:19:28Z</time>
      </trkpt>
      <trkpt lat="44.56685" lon="6.1959">
        <ele>860.036621</ele>
        <time>2011-11-01T11:19:42Z</time>
      </trkpt>
      <trkpt lat="44.56712" lon="6.19582">
        <ele>859.555908</ele>
        <time>2011-11-01T11:19:49Z</time>
      </trkpt>
      <trkpt lat="44.56728" lon="6.19569">
        <ele>860.036621</ele>
        <time>2011-11-01T11:19:54Z</time>
      </trkpt>
      <trkpt lat="44.56739" lon="6.19551">
        <ele>860.036621</ele>
        <time>2011-11-01T11:19:58Z</time>
      </trkpt>
      <trkpt lat="44.56785" lon="6.19449">
        <ele>859.555908</ele>
        <time>2011-11-01T11:20:18Z</time>
      </trkpt>
      <trkpt lat="44.56809" lon="6.19386">
        <ele>859.555908</ele>
        <time>2011-11-01T11:20:30Z</time>
      </trkpt>
      <trkpt lat="44.56855" lon="6.19276">
        <ele>859.075195</ele>
        <time>2011-11-01T11:20:48Z</time>
      </trkpt>
      <trkpt lat="44.56902" lon="6.19173">
        <ele>857.152588</ele>
        <time>2011-11-01T11:21:04Z</time>
      </trkpt>
      <trkpt lat="44.56921" lon="6.1914">
        <ele>856.671875</ele>
        <time>2011-11-01T11:21:10Z</time>
      </trkpt>
      <trkpt lat="44.56973" lon="6.19053">
        <ele>855.710693</ele>
        <time>2011-11-01T11:21:26Z</time>
      </trkpt>
      <trkpt lat="44.56981" lon="6.19044">
        <ele>856.191162</ele>
        <time>2011-11-01T11:21:28Z</time>
      </trkpt>
      <trkpt lat="44.57049" lon="6.18965">
        <ele>855.710693</ele>
        <time>2011-11-01T11:21:47Z</time>
      </trkpt>
      <trkpt lat="44.57102" lon="6.18878">
        <ele>856.191162</ele>
        <time>2011-11-01T11:22:06Z</time>
      </trkpt>
      <trkpt lat="44.57114" lon="6.18861">
        <ele>856.191162</ele>
        <time>2011-11-01T11:22:10Z</time>
      </trkpt>
      <trkpt lat="44.5719" lon="6.18812">
        <ele>857.152588</ele>
        <time>2011-11-01T11:22:29Z</time>
      </trkpt>
      <trkpt lat="44.5723" lon="6.18765">
        <ele>858.594482</ele>
        <time>2011-11-01T11:22:46Z</time>
      </trkpt>
      <trkpt lat="44.57235" lon="6.18697">
        <ele>859.075195</ele>
        <time>2011-11-01T11:23:01Z</time>
      </trkpt>
      <trkpt lat="44.57253" lon="6.18613">
        <ele>859.555908</ele>
        <time>2011-11-01T11:23:20Z</time>
      </trkpt>
      <trkpt lat="44.57284" lon="6.18526">
        <ele>860.998047</ele>
        <time>2011-11-01T11:23:43Z</time>
      </trkpt>
      <trkpt lat="44.57299" lon="6.18463">
        <ele>864.362549</ele>
        <time>2011-11-01T11:24:04Z</time>
      </trkpt>
      <trkpt lat="44.57314" lon="6.18396">
        <ele>867.246582</ele>
        <time>2011-11-01T11:24:27Z</time>
      </trkpt>
      <trkpt lat="44.57334" lon="6.18332">
        <ele>870.130371</ele>
        <time>2011-11-01T11:24:50Z</time>
      </trkpt>
      <trkpt lat="44.57365" lon="6.18292">
        <ele>872.533691</ele>
        <time>2011-11-01T11:25:10Z</time>
      </trkpt>
      <trkpt lat="44.57398" lon="6.18258">
        <ele>874.937012</ele>
        <time>2011-11-01T11:25:30Z</time>
      </trkpt>
      <trkpt lat="44.57438" lon="6.18222">
        <ele>877.340576</ele>
        <time>2011-11-01T11:25:53Z</time>
      </trkpt>
      <trkpt lat="44.57462" lon="6.18186">
        <ele>879.262939</ele>
        <time>2011-11-01T11:26:11Z</time>
      </trkpt>
      <trkpt lat="44.57492" lon="6.18132">
        <ele>882.627686</ele>
        <time>2011-11-01T11:26:35Z</time>
      </trkpt>
      <trkpt lat="44.57527" lon="6.18092">
        <ele>884.550293</ele>
        <time>2011-11-01T11:26:56Z</time>
      </trkpt>
      <trkpt lat="44.57565" lon="6.18055">
        <ele>886.953369</ele>
        <time>2011-11-01T11:27:18Z</time>
      </trkpt>
      <trkpt lat="44.57608" lon="6.18005">
        <ele>890.318115</ele>
        <time>2011-11-01T11:27:44Z</time>
      </trkpt>
      <trkpt lat="44.5765" lon="6.17972">
        <ele>893.202148</ele>
        <time>2011-11-01T11:28:06Z</time>
      </trkpt>
      <trkpt lat="44.57687" lon="6.1795">
        <ele>895.124756</ele>
        <time>2011-11-01T11:28:26Z</time>
      </trkpt>
      <trkpt lat="44.57725" lon="6.17939">
        <ele>897.528076</ele>
        <time>2011-11-01T11:28:44Z</time>
      </trkpt>
      <trkpt lat="44.57763" lon="6.17935">
        <ele>898.969971</ele>
        <time>2011-11-01T11:29:03Z</time>
      </trkpt>
      <trkpt lat="44.57797" lon="6.17925">
        <ele>899.931396</ele>
        <time>2011-11-01T11:29:19Z</time>
      </trkpt>
      <trkpt lat="44.57815" lon="6.17898">
        <ele>900.892578</ele>
        <time>2011-11-01T11:29:32Z</time>
      </trkpt>
      <trkpt lat="44.57836" lon="6.17851">
        <ele>903.295898</ele>
        <time>2011-11-01T11:29:50Z</time>
      </trkpt>
      <trkpt lat="44.57842" lon="6.17792">
        <ele>906.179688</ele>
        <time>2011-11-01T11:30:10Z</time>
      </trkpt>
      <trkpt lat="44.57855" lon="6.17739">
        <ele>909.544678</ele>
        <time>2011-11-01T11:30:29Z</time>
      </trkpt>
      <trkpt lat="44.57868" lon="6.17705">
        <ele>910.505859</ele>
        <time>2011-11-01T11:30:42Z</time>
      </trkpt>
      <trkpt lat="44.57884" lon="6.1766">
        <ele>913.870361</ele>
        <time>2011-11-01T11:30:59Z</time>
      </trkpt>
      <trkpt lat="44.57914" lon="6.17617">
        <ele>916.273682</ele>
        <time>2011-11-01T11:31:19Z</time>
      </trkpt>
      <trkpt lat="44.57917" lon="6.17614">
        <ele>917.715576</ele>
        <time>2011-11-01T11:31:21Z</time>
      </trkpt>
      <trkpt lat="44.57954" lon="6.17595">
        <ele>919.157715</ele>
        <time>2011-11-01T11:31:39Z</time>
      </trkpt>
      <trkpt lat="44.57988" lon="6.1762">
        <ele>922.522217</ele>
        <time>2011-11-01T11:31:57Z</time>
      </trkpt>
      <trkpt lat="44.57996" lon="6.17623">
        <ele>922.522217</ele>
        <time>2011-11-01T11:32:01Z</time>
      </trkpt>
      <trkpt lat="44.58009" lon="6.176">
        <ele>924.925781</ele>
        <time>2011-11-01T11:32:15Z</time>
      </trkpt>
      <trkpt lat="44.58014" lon="6.17551">
        <ele>927.329102</ele>
        <time>2011-11-01T11:32:34Z</time>
      </trkpt>
      <trkpt lat="44.58038" lon="6.17515">
        <ele>929.732178</ele>
        <time>2011-11-01T11:32:51Z</time>
      </trkpt>
      <trkpt lat="44.58071" lon="6.17512">
        <ele>933.09668</ele>
        <time>2011-11-01T11:33:08Z</time>
      </trkpt>
      <trkpt lat="44.58076" lon="6.17512">
        <ele>933.577393</ele>
        <time>2011-11-01T11:33:11Z</time>
      </trkpt>
      <trkpt lat="44.58095" lon="6.17497">
        <ele>935.5</ele>
        <time>2011-11-01T11:33:26Z</time>
      </trkpt>
      <trkpt lat="44.5808" lon="6.17467">
        <ele>937.90332</ele>
        <time>2011-11-01T11:33:41Z</time>
      </trkpt>
      <trkpt lat="44.58066" lon="6.17413">
        <ele>940.306885</ele>
        <time>2011-11-01T11:34:01Z</time>
      </trkpt>
      <trkpt lat="44.58095" lon="6.17388">
        <ele>943.190674</ele>
        <time>2011-11-01T11:34:18Z</time>
      </trkpt>
      <trkpt lat="44.58134" lon="6.17377">
        <ele>946.074707</ele>
        <time>2011-11-01T11:34:38Z</time>
      </trkpt>
      <trkpt lat="44.58168" lon="6.17383">
        <ele>948.477783</ele>
        <time>2011-11-01T11:34:55Z</time>
      </trkpt>
      <trkpt lat="44.58198" lon="6.17388">
        <ele>950.400635</ele>
        <time>2011-11-01T11:35:11Z</time>
      </trkpt>
      <trkpt lat="44.5823" lon="6.17393">
        <ele>953.284424</ele>
        <time>2011-11-01T11:35:28Z</time>
      </trkpt>
      <trkpt lat="44.58243" lon="6.17368">
        <ele>954.726318</ele>
        <time>2011-11-01T11:35:41Z</time>
      </trkpt>
      <trkpt lat="44.58236" lon="6.17347">
        <ele>956.168457</ele>
        <time>2011-11-01T11:35:50Z</time>
      </trkpt>
      <trkpt lat="44.58211" lon="6.17303">
        <ele>959.05249</ele>
        <time>2011-11-01T11:36:11Z</time>
      </trkpt>
      <trkpt lat="44.58204" lon="6.17269">
        <ele>961.936523</ele>
        <time>2011-11-01T11:36:25Z</time>
      </trkpt>
      <trkpt lat="44.58238" lon="6.17254">
        <ele>965.301025</ele>
        <time>2011-11-01T11:36:42Z</time>
      </trkpt>
      <trkpt lat="44.58273" lon="6.17245">
        <ele>968.184814</ele>
        <time>2011-11-01T11:37:01Z</time>
      </trkpt>
      <trkpt lat="44.58305" lon="6.1723">
        <ele>971.068848</ele>
        <time>2011-11-01T11:37:19Z</time>
      </trkpt>
      <trkpt lat="44.58342" lon="6.17211">
        <ele>973.952881</ele>
        <time>2011-11-01T11:37:41Z</time>
      </trkpt>
      <trkpt lat="44.58346" lon="6.1718">
        <ele>974.914307</ele>
        <time>2011-11-01T11:37:54Z</time>
      </trkpt>
      <trkpt lat="44.58346" lon="6.17177">
        <ele>974.914307</ele>
        <time>2011-11-01T11:37:55Z</time>
      </trkpt>
      <trkpt lat="44.58316" lon="6.17165">
        <ele>977.798096</ele>
        <time>2011-11-01T11:38:13Z</time>
      </trkpt>
      <trkpt lat="44.58285" lon="6.17156">
        <ele>980.682129</ele>
        <time>2011-11-01T11:38:30Z</time>
      </trkpt>
      <trkpt lat="44.58283" lon="6.17156">
        <ele>980.682129</ele>
        <time>2011-11-01T11:38:31Z</time>
      </trkpt>
      <trkpt lat="44.58253" lon="6.17145">
        <ele>983.085205</ele>
        <time>2011-11-01T11:38:47Z</time>
      </trkpt>
      <trkpt lat="44.58226" lon="6.17105">
        <ele>985.488525</ele>
        <time>2011-11-01T11:39:07Z</time>
      </trkpt>
      <trkpt lat="44.58232" lon="6.1705">
        <ele>988.372803</ele>
        <time>2011-11-01T11:39:24Z</time>
      </trkpt>
      <trkpt lat="44.58244" lon="6.17002">
        <ele>990.29541</ele>
        <time>2011-11-01T11:39:42Z</time>
      </trkpt>
      <trkpt lat="44.58256" lon="6.16955">
        <ele>993.659912</ele>
        <time>2011-11-01T11:40:01Z</time>
      </trkpt>
      <trkpt lat="44.5827" lon="6.16905">
        <ele>996.063232</ele>
        <time>2011-11-01T11:40:21Z</time>
      </trkpt>
      <trkpt lat="44.5829" lon="6.1686">
        <ele>999.427734</ele>
        <time>2011-11-01T11:40:40Z</time>
      </trkpt>
      <trkpt lat="44.58319" lon="6.16845">
        <ele>1002.311523</ele>
        <time>2011-11-01T11:40:56Z</time>
      </trkpt>
      <trkpt lat="44.5833" lon="6.16834">
        <ele>1003.272949</ele>
        <time>2011-11-01T11:41:04Z</time>
      </trkpt>
      <trkpt lat="44.58336" lon="6.16828">
        <ele>1003.753662</ele>
        <time>2011-11-01T11:41:08Z</time>
      </trkpt>
      <trkpt lat="44.58354" lon="6.16793">
        <ele>1006.637695</ele>
        <time>2011-11-01T11:41:26Z</time>
      </trkpt>
      <trkpt lat="44.58355" lon="6.16746">
        <ele>1009.041016</ele>
        <time>2011-11-01T11:41:43Z</time>
      </trkpt>
      <trkpt lat="44.58371" lon="6.16704">
        <ele>1011.925049</ele>
        <time>2011-11-01T11:42:01Z</time>
      </trkpt>
      <trkpt lat="44.58386" lon="6.16664">
        <ele>1014.328125</ele>
        <time>2011-11-01T11:42:18Z</time>
      </trkpt>
      <trkpt lat="44.584" lon="6.1662">
        <ele>1017.692627</ele>
        <time>2011-11-01T11:42:36Z</time>
      </trkpt>
      <trkpt lat="44.58417" lon="6.16576">
        <ele>1020.096191</ele>
        <time>2011-11-01T11:42:56Z</time>
      </trkpt>
      <trkpt lat="44.58446" lon="6.16564">
        <ele>1023.460938</ele>
        <time>2011-11-01T11:43:11Z</time>
      </trkpt>
      <trkpt lat="44.58448" lon="6.16535">
        <ele>1024.422119</ele>
        <time>2011-11-01T11:43:23Z</time>
      </trkpt>
      <trkpt lat="44.58445" lon="6.16493">
        <ele>1026.825439</ele>
        <time>2011-11-01T11:43:39Z</time>
      </trkpt>
      <trkpt lat="44.58461" lon="6.16444">
        <ele>1029.709229</ele>
        <time>2011-11-01T11:43:59Z</time>
      </trkpt>
      <trkpt lat="44.58481" lon="6.16392">
        <ele>1032.593262</ele>
        <time>2011-11-01T11:44:21Z</time>
      </trkpt>
      <trkpt lat="44.58515" lon="6.1638">
        <ele>1035.957764</ele>
        <time>2011-11-01T11:44:38Z</time>
      </trkpt>
      <trkpt lat="44.5854" lon="6.1637">
        <ele>1037.399902</ele>
        <time>2011-11-01T11:44:52Z</time>
      </trkpt>
      <trkpt lat="44.5856" lon="6.16354">
        <ele>1038.842041</ele>
        <time>2011-11-01T11:45:05Z</time>
      </trkpt>
      <trkpt lat="44.58563" lon="6.16343">
        <ele>1039.803223</ele>
        <time>2011-11-01T11:45:09Z</time>
      </trkpt>
      <trkpt lat="44.58559" lon="6.16332">
        <ele>1040.764404</ele>
        <time>2011-11-01T11:45:14Z</time>
      </trkpt>
      <trkpt lat="44.58531" lon="6.16303">
        <ele>1043.648438</ele>
        <time>2011-11-01T11:45:33Z</time>
      </trkpt>
      <trkpt lat="44.58548" lon="6.16267">
        <ele>1046.051758</ele>
        <time>2011-11-01T11:45:49Z</time>
      </trkpt>
      <trkpt lat="44.58569" lon="6.16255">
        <ele>1048.454834</ele>
        <time>2011-11-01T11:46:00Z</time>
      </trkpt>
      <trkpt lat="44.58589" lon="6.16255">
        <ele>1050.377686</ele>
        <time>2011-11-01T11:46:10Z</time>
      </trkpt>
      <trkpt lat="44.5862" lon="6.1626">
        <ele>1052.781006</ele>
        <time>2011-11-01T11:46:27Z</time>
      </trkpt>
      <trkpt lat="44.58626" lon="6.16255">
        <ele>1054.223145</ele>
        <time>2011-11-01T11:46:31Z</time>
      </trkpt>
      <trkpt lat="44.5864" lon="6.16246">
        <ele>1054.223145</ele>
        <time>2011-11-01T11:46:39Z</time>
      </trkpt>
      <trkpt lat="44.58672" lon="6.16236">
        <ele>1057.587646</ele>
        <time>2011-11-01T11:46:57Z</time>
      </trkpt>
      <trkpt lat="44.58681" lon="6.1621">
        <ele>1058.068359</ele>
        <time>2011-11-01T11:47:10Z</time>
      </trkpt>
      <trkpt lat="44.58661" lon="6.16186">
        <ele>1060.952148</ele>
        <time>2011-11-01T11:47:25Z</time>
      </trkpt>
      <trkpt lat="44.58646" lon="6.16179">
        <ele>1061.913574</ele>
        <time>2011-11-01T11:47:33Z</time>
      </trkpt>
      <trkpt lat="44.58629" lon="6.16126">
        <ele>1064.797363</ele>
        <time>2011-11-01T11:47:55Z</time>
      </trkpt>
      <trkpt lat="44.58653" lon="6.16086">
        <ele>1067.200684</ele>
        <time>2011-11-01T11:48:14Z</time>
      </trkpt>
      <trkpt lat="44.58665" lon="6.16068">
        <ele>1069.123535</ele>
        <time>2011-11-01T11:48:22Z</time>
      </trkpt>
      <trkpt lat="44.58678" lon="6.1604">
        <ele>1072.96875</ele>
        <time>2011-11-01T11:48:35Z</time>
      </trkpt>
      <trkpt lat="44.58679" lon="6.16038">
        <ele>1072.96875</ele>
        <time>2011-11-01T11:48:36Z</time>
      </trkpt>
      <trkpt lat="44.58694" lon="6.16001">
        <ele>1074.410645</ele>
        <time>2011-11-01T11:48:52Z</time>
      </trkpt>
      <trkpt lat="44.58706" lon="6.15975">
        <ele>1075.852539</ele>
        <time>2011-11-01T11:49:04Z</time>
      </trkpt>
      <trkpt lat="44.58737" lon="6.15973">
        <ele>1078.736572</ele>
        <time>2011-11-01T11:49:19Z</time>
      </trkpt>
      <trkpt lat="44.58739" lon="6.15973">
        <ele>1078.736572</ele>
        <time>2011-11-01T11:49:20Z</time>
      </trkpt>
      <trkpt lat="44.58739" lon="6.15935">
        <ele>1080.178467</ele>
        <time>2011-11-01T11:49:35Z</time>
      </trkpt>
      <trkpt lat="44.58747" lon="6.15889">
        <ele>1082.581787</ele>
        <time>2011-11-01T11:49:52Z</time>
      </trkpt>
      <trkpt lat="44.58767" lon="6.1586">
        <ele>1085.46582</ele>
        <time>2011-11-01T11:50:08Z</time>
      </trkpt>
      <trkpt lat="44.5878" lon="6.15818">
        <ele>1089.311035</ele>
        <time>2011-11-01T11:50:26Z</time>
      </trkpt>
      <trkpt lat="44.58784" lon="6.15812">
        <ele>1089.311035</ele>
        <time>2011-11-01T11:50:27Z</time>
      </trkpt>
      <trkpt lat="44.58788" lon="6.15805">
        <ele>1090.75293</ele>
        <time>2011-11-01T11:50:32Z</time>
      </trkpt>
      <trkpt lat="44.5879" lon="6.15802">
        <ele>1089.311035</ele>
        <time>2011-11-01T11:50:34Z</time>
      </trkpt>
      <trkpt lat="44.58799" lon="6.15795">
        <ele>1089.791748</ele>
        <time>2011-11-01T11:50:38Z</time>
      </trkpt>
      <trkpt lat="44.58831" lon="6.15796">
        <ele>1093.15625</ele>
        <time>2011-11-01T11:50:55Z</time>
      </trkpt>
      <trkpt lat="44.58851" lon="6.15787">
        <ele>1096.040283</ele>
        <time>2011-11-01T11:51:08Z</time>
      </trkpt>
      <trkpt lat="44.58853" lon="6.15784">
        <ele>1096.040283</ele>
        <time>2011-11-01T11:51:10Z</time>
      </trkpt>
      <trkpt lat="44.58855" lon="6.15777">
        <ele>1097.482178</ele>
        <time>2011-11-01T11:51:13Z</time>
      </trkpt>
      <trkpt lat="44.58853" lon="6.15748">
        <ele>1099.404785</ele>
        <time>2011-11-01T11:51:24Z</time>
      </trkpt>
      <trkpt lat="44.58859" lon="6.15726">
        <ele>1098.924072</ele>
        <time>2011-11-01T11:51:32Z</time>
      </trkpt>
      <trkpt lat="44.58865" lon="6.1572">
        <ele>1098.924072</ele>
        <time>2011-11-01T11:51:36Z</time>
      </trkpt>
      <trkpt lat="44.58871" lon="6.15715">
        <ele>1099.885498</ele>
        <time>2011-11-01T11:51:40Z</time>
      </trkpt>
      <trkpt lat="44.58906" lon="6.15696">
        <ele>1102.769531</ele>
        <time>2011-11-01T11:52:01Z</time>
      </trkpt>
      <trkpt lat="44.58924" lon="6.15663">
        <ele>1105.653564</ele>
        <time>2011-11-01T11:52:18Z</time>
      </trkpt>
      <trkpt lat="44.58934" lon="6.1563">
        <ele>1106.614746</ele>
        <time>2011-11-01T11:52:32Z</time>
      </trkpt>
      <trkpt lat="44.58948" lon="6.15602">
        <ele>1110.459961</ele>
        <time>2011-11-01T11:52:47Z</time>
      </trkpt>
      <trkpt lat="44.5896" lon="6.15587">
        <ele>1111.9021</ele>
        <time>2011-11-01T11:52:56Z</time>
      </trkpt>
      <trkpt lat="44.5897" lon="6.1558">
        <ele>1113.824463</ele>
        <time>2011-11-01T11:53:02Z</time>
      </trkpt>
      <trkpt lat="44.58977" lon="6.15578">
        <ele>1114.305176</ele>
        <time>2011-11-01T11:53:06Z</time>
      </trkpt>
      <trkpt lat="44.58996" lon="6.15555">
        <ele>1116.228027</ele>
        <time>2011-11-01T11:53:21Z</time>
      </trkpt>
      <trkpt lat="44.59008" lon="6.15507">
        <ele>1119.592773</ele>
        <time>2011-11-01T11:53:42Z</time>
      </trkpt>
      <trkpt lat="44.59011" lon="6.15501">
        <ele>1119.112061</ele>
        <time>2011-11-01T11:53:55Z</time>
      </trkpt>
      <trkpt lat="44.5901" lon="6.15478">
        <ele>1119.112061</ele>
        <time>2011-11-01T11:54:23Z</time>
      </trkpt>
      <trkpt lat="44.59037" lon="6.15471">
        <ele>1115.266602</ele>
        <time>2011-11-01T11:54:29Z</time>
      </trkpt>
      <trkpt lat="44.59037" lon="6.1547">
        <ele>1115.266602</ele>
        <time>2011-11-01T11:54:30Z</time>
      </trkpt>
      <trkpt lat="44.59015" lon="6.15379">
        <ele>1111.421387</ele>
        <time>2011-11-01T11:54:35Z</time>
      </trkpt>
      <trkpt lat="44.59013" lon="6.15347">
        <ele>1110.459961</ele>
        <time>2011-11-01T11:54:39Z</time>
      </trkpt>
      <trkpt lat="44.59012" lon="6.15315">
        <ele>1109.018066</ele>
        <time>2011-11-01T11:54:42Z</time>
      </trkpt>
      <trkpt lat="44.59004" lon="6.15259">
        <ele>1105.653564</ele>
        <time>2011-11-01T11:54:47Z</time>
      </trkpt>
      <trkpt lat="44.58999" lon="6.15235">
        <ele>1104.21167</ele>
        <time>2011-11-01T11:54:49Z</time>
      </trkpt>
      <trkpt lat="44.58984" lon="6.15176">
        <ele>1101.327637</ele>
        <time>2011-11-01T11:54:54Z</time>
      </trkpt>
      <trkpt lat="44.58981" lon="6.15163">
        <ele>1101.80835</ele>
        <time>2011-11-01T11:54:55Z</time>
      </trkpt>
      <trkpt lat="44.58982" lon="6.15121">
        <ele>1100.366455</ele>
        <time>2011-11-01T11:54:58Z</time>
      </trkpt>
      <trkpt lat="44.58983" lon="6.15094">
        <ele>1098.443359</ele>
        <time>2011-11-01T11:55:00Z</time>
      </trkpt>
      <trkpt lat="44.58981" lon="6.15067">
        <ele>1096.520996</ele>
        <time>2011-11-01T11:55:02Z</time>
      </trkpt>
      <trkpt lat="44.5898" lon="6.15054">
        <ele>1096.040283</ele>
        <time>2011-11-01T11:55:03Z</time>
      </trkpt>
      <trkpt lat="44.58978" lon="6.15028">
        <ele>1094.117676</ele>
        <time>2011-11-01T11:55:05Z</time>
      </trkpt>
      <trkpt lat="44.58984" lon="6.15003">
        <ele>1092.195068</ele>
        <time>2011-11-01T11:55:07Z</time>
      </trkpt>
      <trkpt lat="44.58991" lon="6.14948">
        <ele>1088.830566</ele>
        <time>2011-11-01T11:55:12Z</time>
      </trkpt>
      <trkpt lat="44.58981" lon="6.14879">
        <ele>1083.062256</ele>
        <time>2011-11-01T11:55:18Z</time>
      </trkpt>
      <trkpt lat="44.58981" lon="6.1487">
        <ele>1083.062256</ele>
        <time>2011-11-01T11:55:19Z</time>
      </trkpt>
      <trkpt lat="44.58979" lon="6.14828">
        <ele>1081.139893</ele>
        <time>2011-11-01T11:55:23Z</time>
      </trkpt>
      <trkpt lat="44.58979" lon="6.14818">
        <ele>1079.217041</ele>
        <time>2011-11-01T11:55:24Z</time>
      </trkpt>
      <trkpt lat="44.58963" lon="6.14794">
        <ele>1077.775146</ele>
        <time>2011-11-01T11:55:30Z</time>
      </trkpt>
      <trkpt lat="44.58957" lon="6.14818">
        <ele>1076.333252</ele>
        <time>2011-11-01T11:55:33Z</time>
      </trkpt>
      <trkpt lat="44.58938" lon="6.14883">
        <ele>1072.96875</ele>
        <time>2011-11-01T11:55:39Z</time>
      </trkpt>
      <trkpt lat="44.58918" lon="6.14909">
        <ele>1069.604248</ele>
        <time>2011-11-01T11:55:42Z</time>
      </trkpt>
      <trkpt lat="44.58893" lon="6.14931">
        <ele>1067.200684</ele>
        <time>2011-11-01T11:55:45Z</time>
      </trkpt>
      <trkpt lat="44.58893" lon="6.14976">
        <ele>1065.758789</ele>
        <time>2011-11-01T11:55:49Z</time>
      </trkpt>
      <trkpt lat="44.58891" lon="6.14985">
        <ele>1064.31665</ele>
        <time>2011-11-01T11:55:50Z</time>
      </trkpt>
      <trkpt lat="44.58859" lon="6.15007">
        <ele>1062.874756</ele>
        <time>2011-11-01T11:55:53Z</time>
      </trkpt>
      <trkpt lat="44.58844" lon="6.15034">
        <ele>1058.548828</ele>
        <time>2011-11-01T11:55:56Z</time>
      </trkpt>
      <trkpt lat="44.5884" lon="6.15056">
        <ele>1059.029541</ele>
        <time>2011-11-01T11:55:58Z</time>
      </trkpt>
      <trkpt lat="44.58831" lon="6.15074">
        <ele>1056.626221</ele>
        <time>2011-11-01T11:56:00Z</time>
      </trkpt>
      <trkpt lat="44.58822" lon="6.15103">
        <ele>1054.223145</ele>
        <time>2011-11-01T11:56:03Z</time>
      </trkpt>
      <trkpt lat="44.5882" lon="6.15111">
        <ele>1054.223145</ele>
        <time>2011-11-01T11:56:04Z</time>
      </trkpt>
      <trkpt lat="44.58811" lon="6.15128">
        <ele>1051.81958</ele>
        <time>2011-11-01T11:56:07Z</time>
      </trkpt>
      <trkpt lat="44.58801" lon="6.15123">
        <ele>1050.377686</ele>
        <time>2011-11-01T11:56:10Z</time>
      </trkpt>
      <trkpt lat="44.58798" lon="6.15102">
        <ele>1048.935547</ele>
        <time>2011-11-01T11:56:13Z</time>
      </trkpt>
      <trkpt lat="44.58794" lon="6.15039">
        <ele>1045.571045</ele>
        <time>2011-11-01T11:56:20Z</time>
      </trkpt>
      <trkpt lat="44.58791" lon="6.14972">
        <ele>1043.167725</ele>
        <time>2011-11-01T11:56:26Z</time>
      </trkpt>
      <trkpt lat="44.58786" lon="6.14947">
        <ele>1041.245117</ele>
        <time>2011-11-01T11:56:28Z</time>
      </trkpt>
      <trkpt lat="44.58781" lon="6.14921">
        <ele>1039.803223</ele>
        <time>2011-11-01T11:56:30Z</time>
      </trkpt>
      <trkpt lat="44.58774" lon="6.1488">
        <ele>1037.399902</ele>
        <time>2011-11-01T11:56:33Z</time>
      </trkpt>
      <trkpt lat="44.58769" lon="6.14852">
        <ele>1035.477051</ele>
        <time>2011-11-01T11:56:35Z</time>
      </trkpt>
      <trkpt lat="44.58764" lon="6.14824">
        <ele>1034.035156</ele>
        <time>2011-11-01T11:56:37Z</time>
      </trkpt>
      <trkpt lat="44.58757" lon="6.14796">
        <ele>1030.670654</ele>
        <time>2011-11-01T11:56:39Z</time>
      </trkpt>
      <trkpt lat="44.58753" lon="6.14784">
        <ele>1030.670654</ele>
        <time>2011-11-01T11:56:40Z</time>
      </trkpt>
      <trkpt lat="44.58747" lon="6.14761">
        <ele>1029.228516</ele>
        <time>2011-11-01T11:56:42Z</time>
      </trkpt>
      <trkpt lat="44.5874" lon="6.14739">
        <ele>1027.786621</ele>
        <time>2011-11-01T11:56:44Z</time>
      </trkpt>
      <trkpt lat="44.58733" lon="6.14695">
        <ele>1024.422119</ele>
        <time>2011-11-01T11:56:48Z</time>
      </trkpt>
      <trkpt lat="44.58735" lon="6.14625">
        <ele>1020.096191</ele>
        <time>2011-11-01T11:56:53Z</time>
      </trkpt>
      <trkpt lat="44.58735" lon="6.14612">
        <ele>1020.096191</ele>
        <time>2011-11-01T11:56:54Z</time>
      </trkpt>
      <trkpt lat="44.58735" lon="6.14589">
        <ele>1018.17334</ele>
        <time>2011-11-01T11:56:56Z</time>
      </trkpt>
      <trkpt lat="44.58735" lon="6.14563">
        <ele>1017.212158</ele>
        <time>2011-11-01T11:56:58Z</time>
      </trkpt>
      <trkpt lat="44.5874" lon="6.14522">
        <ele>1014.328125</ele>
        <time>2011-11-01T11:57:01Z</time>
      </trkpt>
      <trkpt lat="44.58744" lon="6.14496">
        <ele>1012.88623</ele>
        <time>2011-11-01T11:57:03Z</time>
      </trkpt>
      <trkpt lat="44.58745" lon="6.14469">
        <ele>1011.444336</ele>
        <time>2011-11-01T11:57:05Z</time>
      </trkpt>
      <trkpt lat="44.58745" lon="6.14442">
        <ele>1010.002197</ele>
        <time>2011-11-01T11:57:07Z</time>
      </trkpt>
      <trkpt lat="44.58745" lon="6.14417">
        <ele>1007.118408</ele>
        <time>2011-11-01T11:57:09Z</time>
      </trkpt>
      <trkpt lat="44.58745" lon="6.14406">
        <ele>1007.118408</ele>
        <time>2011-11-01T11:57:10Z</time>
      </trkpt>
      <trkpt lat="44.58744" lon="6.14384">
        <ele>1005.195801</ele>
        <time>2011-11-01T11:57:12Z</time>
      </trkpt>
      <trkpt lat="44.58743" lon="6.14363">
        <ele>1003.753662</ele>
        <time>2011-11-01T11:57:14Z</time>
      </trkpt>
      <trkpt lat="44.58747" lon="6.14333">
        <ele>1001.350342</ele>
        <time>2011-11-01T11:57:17Z</time>
      </trkpt>
      <trkpt lat="44.58754" lon="6.14317">
        <ele>999.908447</ele>
        <time>2011-11-01T11:57:19Z</time>
      </trkpt>
      <trkpt lat="44.58742" lon="6.14283">
        <ele>998.466309</ele>
        <time>2011-11-01T11:57:24Z</time>
      </trkpt>
      <trkpt lat="44.5873" lon="6.1427">
        <ele>997.505127</ele>
        <time>2011-11-01T11:57:26Z</time>
      </trkpt>
      <trkpt lat="44.58715" lon="6.14217">
        <ele>993.659912</ele>
        <time>2011-11-01T11:57:31Z</time>
      </trkpt>
      <trkpt lat="44.58707" lon="6.14172">
        <ele>990.775879</ele>
        <time>2011-11-01T11:57:35Z</time>
      </trkpt>
      <trkpt lat="44.587" lon="6.14139">
        <ele>988.853516</ele>
        <time>2011-11-01T11:57:38Z</time>
      </trkpt>
      <trkpt lat="44.58694" lon="6.14116">
        <ele>987.411133</ele>
        <time>2011-11-01T11:57:40Z</time>
      </trkpt>
      <trkpt lat="44.5869" lon="6.14064">
        <ele>984.046631</ele>
        <time>2011-11-01T11:57:44Z</time>
      </trkpt>
      <trkpt lat="44.5869" lon="6.14051">
        <ele>984.046631</ele>
        <time>2011-11-01T11:57:45Z</time>
      </trkpt>
      <trkpt lat="44.58691" lon="6.13976">
        <ele>980.682129</ele>
        <time>2011-11-01T11:57:52Z</time>
      </trkpt>
      <trkpt lat="44.58691" lon="6.13967">
        <ele>980.682129</ele>
        <time>2011-11-01T11:57:53Z</time>
      </trkpt>
      <trkpt lat="44.58692" lon="6.1394">
        <ele>979.720703</ele>
        <time>2011-11-01T11:57:57Z</time>
      </trkpt>
      <trkpt lat="44.58692" lon="6.1394">
        <ele>977.317627</ele>
        <time>2011-11-01T11:58:01Z</time>
      </trkpt>
      <trkpt lat="44.58677" lon="6.1381">
        <ele>972.030273</ele>
        <time>2011-11-01T11:58:07Z</time>
      </trkpt>
      <trkpt lat="44.58677" lon="6.13799">
        <ele>972.030273</ele>
        <time>2011-11-01T11:58:08Z</time>
      </trkpt>
      <trkpt lat="44.58677" lon="6.13789">
        <ele>971.068848</ele>
        <time>2011-11-01T11:58:09Z</time>
      </trkpt>
      <trkpt lat="44.5868" lon="6.1376">
        <ele>970.107422</ele>
        <time>2011-11-01T11:58:12Z</time>
      </trkpt>
      <trkpt lat="44.5868" lon="6.13734">
        <ele>968.184814</ele>
        <time>2011-11-01T11:58:15Z</time>
      </trkpt>
      <trkpt lat="44.58671" lon="6.13719">
        <ele>966.74292</ele>
        <time>2011-11-01T11:58:17Z</time>
      </trkpt>
      <trkpt lat="44.58665" lon="6.13711">
        <ele>968.184814</ele>
        <time>2011-11-01T11:58:18Z</time>
      </trkpt>
      <trkpt lat="44.5865" lon="6.13684">
        <ele>964.820313</ele>
        <time>2011-11-01T11:58:21Z</time>
      </trkpt>
      <trkpt lat="44.58645" lon="6.13674">
        <ele>964.820313</ele>
        <time>2011-11-01T11:58:22Z</time>
      </trkpt>
      <trkpt lat="44.58634" lon="6.13654">
        <ele>961.936523</ele>
        <time>2011-11-01T11:58:24Z</time>
      </trkpt>
      <trkpt lat="44.58623" lon="6.13633">
        <ele>960.494385</ele>
        <time>2011-11-01T11:58:26Z</time>
      </trkpt>
      <trkpt lat="44.58613" lon="6.13615">
        <ele>957.129883</ele>
        <time>2011-11-01T11:58:28Z</time>
      </trkpt>
      <trkpt lat="44.58607" lon="6.13607">
        <ele>957.129883</ele>
        <time>2011-11-01T11:58:29Z</time>
      </trkpt>
      <trkpt lat="44.58596" lon="6.13593">
        <ele>957.129883</ele>
        <time>2011-11-01T11:58:31Z</time>
      </trkpt>
      <trkpt lat="44.58586" lon="6.13581">
        <ele>955.207031</ele>
        <time>2011-11-01T11:58:33Z</time>
      </trkpt>
      <trkpt lat="44.5858" lon="6.1356">
        <ele>953.765137</ele>
        <time>2011-11-01T11:58:35Z</time>
      </trkpt>
      <trkpt lat="44.58578" lon="6.13549">
        <ele>952.322998</ele>
        <time>2011-11-01T11:58:36Z</time>
      </trkpt>
      <trkpt lat="44.58571" lon="6.13499">
        <ele>950.881104</ele>
        <time>2011-11-01T11:58:40Z</time>
      </trkpt>
      <trkpt lat="44.58567" lon="6.13473">
        <ele>948.477783</ele>
        <time>2011-11-01T11:58:42Z</time>
      </trkpt>
      <trkpt lat="44.58564" lon="6.13446">
        <ele>944.632568</ele>
        <time>2011-11-01T11:58:44Z</time>
      </trkpt>
      <trkpt lat="44.58563" lon="6.13433">
        <ele>944.632568</ele>
        <time>2011-11-01T11:58:45Z</time>
      </trkpt>
      <trkpt lat="44.5856" lon="6.13406">
        <ele>942.710205</ele>
        <time>2011-11-01T11:58:47Z</time>
      </trkpt>
      <trkpt lat="44.58556" lon="6.13354">
        <ele>939.345215</ele>
        <time>2011-11-01T11:58:51Z</time>
      </trkpt>
      <trkpt lat="44.58554" lon="6.13342">
        <ele>939.345215</ele>
        <time>2011-11-01T11:58:52Z</time>
      </trkpt>
      <trkpt lat="44.58546" lon="6.13292">
        <ele>936.461426</ele>
        <time>2011-11-01T11:58:56Z</time>
      </trkpt>
      <trkpt lat="44.58542" lon="6.13267">
        <ele>933.09668</ele>
        <time>2011-11-01T11:58:58Z</time>
      </trkpt>
      <trkpt lat="44.5854" lon="6.13254">
        <ele>933.09668</ele>
        <time>2011-11-01T11:58:59Z</time>
      </trkpt>
      <trkpt lat="44.58534" lon="6.13218">
        <ele>930.212891</ele>
        <time>2011-11-01T11:59:02Z</time>
      </trkpt>
      <trkpt lat="44.58518" lon="6.13172">
        <ele>928.290283</ele>
        <time>2011-11-01T11:59:06Z</time>
      </trkpt>
      <trkpt lat="44.58491" lon="6.13132">
        <ele>925.886963</ele>
        <time>2011-11-01T11:59:10Z</time>
      </trkpt>
      <trkpt lat="44.58479" lon="6.1311">
        <ele>922.041504</ele>
        <time>2011-11-01T11:59:12Z</time>
      </trkpt>
      <trkpt lat="44.58474" lon="6.13099">
        <ele>922.041504</ele>
        <time>2011-11-01T11:59:13Z</time>
      </trkpt>
      <trkpt lat="44.58464" lon="6.13078">
        <ele>920.599609</ele>
        <time>2011-11-01T11:59:15Z</time>
      </trkpt>
      <trkpt lat="44.5845" lon="6.13038">
        <ele>917.715576</ele>
        <time>2011-11-01T11:59:19Z</time>
      </trkpt>
      <trkpt lat="44.58439" lon="6.13012">
        <ele>915.3125</ele>
        <time>2011-11-01T11:59:22Z</time>
      </trkpt>
      <trkpt lat="44.58402" lon="6.1299">
        <ele>912.90918</ele>
        <time>2011-11-01T11:59:27Z</time>
      </trkpt>
      <trkpt lat="44.58386" lon="6.12985">
        <ele>910.986572</ele>
        <time>2011-11-01T11:59:29Z</time>
      </trkpt>
      <trkpt lat="44.58369" lon="6.12983">
        <ele>910.505859</ele>
        <time>2011-11-01T11:59:31Z</time>
      </trkpt>
      <trkpt lat="44.58352" lon="6.12983">
        <ele>908.583252</ele>
        <time>2011-11-01T11:59:33Z</time>
      </trkpt>
      <trkpt lat="44.58335" lon="6.12993">
        <ele>906.6604</ele>
        <time>2011-11-01T11:59:35Z</time>
      </trkpt>
      <trkpt lat="44.58308" lon="6.13018">
        <ele>903.776611</ele>
        <time>2011-11-01T11:59:39Z</time>
      </trkpt>
      <trkpt lat="44.58278" lon="6.13034">
        <ele>901.854004</ele>
        <time>2011-11-01T11:59:43Z</time>
      </trkpt>
      <trkpt lat="44.58263" lon="6.13039">
        <ele>899.450684</ele>
        <time>2011-11-01T11:59:45Z</time>
      </trkpt>
      <trkpt lat="44.58229" lon="6.13035">
        <ele>896.566895</ele>
        <time>2011-11-01T11:59:50Z</time>
      </trkpt>
      <trkpt lat="44.58221" lon="6.13021">
        <ele>895.124756</ele>
        <time>2011-11-01T11:59:52Z</time>
      </trkpt>
      <trkpt lat="44.58214" lon="6.13">
        <ele>893.682861</ele>
        <time>2011-11-01T11:59:55Z</time>
      </trkpt>
      <trkpt lat="44.58202" lon="6.12994">
        <ele>892.240967</ele>
        <time>2011-11-01T11:59:58Z</time>
      </trkpt>
      <trkpt lat="44.58202" lon="6.13021">
        <ele>890.798584</ele>
        <time>2011-11-01T12:00:03Z</time>
      </trkpt>
      <trkpt lat="44.58217" lon="6.13062">
        <ele>888.876221</ele>
        <time>2011-11-01T12:00:10Z</time>
      </trkpt>
      <trkpt lat="44.58253" lon="6.13117">
        <ele>884.06958</ele>
        <time>2011-11-01T12:00:19Z</time>
      </trkpt>
      <trkpt lat="44.58257" lon="6.13154">
        <ele>881.185791</ele>
        <time>2011-11-01T12:00:26Z</time>
      </trkpt>
      <trkpt lat="44.58253" lon="6.13154">
        <ele>881.185791</ele>
        <time>2011-11-01T12:00:27Z</time>
      </trkpt>
      <trkpt lat="44.58244" lon="6.13147">
        <ele>880.705078</ele>
        <time>2011-11-01T12:00:29Z</time>
      </trkpt>
      <trkpt lat="44.58237" lon="6.13134">
        <ele>879.743652</ele>
        <time>2011-11-01T12:00:31Z</time>
      </trkpt>
      <trkpt lat="44.58222" lon="6.13114">
        <ele>878.301758</ele>
        <time>2011-11-01T12:00:34Z</time>
      </trkpt>
      <trkpt lat="44.58215" lon="6.13108">
        <ele>877.821045</ele>
        <time>2011-11-01T12:00:35Z</time>
      </trkpt>
      <trkpt lat="44.58192" lon="6.13095">
        <ele>876.37915</ele>
        <time>2011-11-01T12:00:38Z</time>
      </trkpt>
      <trkpt lat="44.58177" lon="6.13087">
        <ele>874.937012</ele>
        <time>2011-11-01T12:00:40Z</time>
      </trkpt>
      <trkpt lat="44.58158" lon="6.1307">
        <ele>872.533691</ele>
        <time>2011-11-01T12:00:43Z</time>
      </trkpt>
      <trkpt lat="44.5814" lon="6.13027">
        <ele>869.649902</ele>
        <time>2011-11-01T12:00:47Z</time>
      </trkpt>
      <trkpt lat="44.58134" lon="6.1299">
        <ele>866.765869</ele>
        <time>2011-11-01T12:00:50Z</time>
      </trkpt>
      <trkpt lat="44.58133" lon="6.12979">
        <ele>865.804688</ele>
        <time>2011-11-01T12:00:51Z</time>
      </trkpt>
      <trkpt lat="44.58127" lon="6.12942">
        <ele>864.362549</ele>
        <time>2011-11-01T12:00:54Z</time>
      </trkpt>
      <trkpt lat="44.58125" lon="6.12917">
        <ele>860.998047</ele>
        <time>2011-11-01T12:00:56Z</time>
      </trkpt>
      <trkpt lat="44.58124" lon="6.12904">
        <ele>860.998047</ele>
        <time>2011-11-01T12:00:57Z</time>
      </trkpt>
      <trkpt lat="44.5812" lon="6.12854">
        <ele>858.594482</ele>
        <time>2011-11-01T12:01:01Z</time>
      </trkpt>
      <trkpt lat="44.58116" lon="6.12819">
        <ele>856.191162</ele>
        <time>2011-11-01T12:01:04Z</time>
      </trkpt>
      <trkpt lat="44.58115" lon="6.12807">
        <ele>854.749268</ele>
        <time>2011-11-01T12:01:05Z</time>
      </trkpt>
      <trkpt lat="44.58118" lon="6.12767">
        <ele>853.307373</ele>
        <time>2011-11-01T12:01:08Z</time>
      </trkpt>
      <trkpt lat="44.58121" lon="6.12742">
        <ele>850.904053</ele>
        <time>2011-11-01T12:01:10Z</time>
      </trkpt>
      <trkpt lat="44.58116" lon="6.12679">
        <ele>848.020264</ele>
        <time>2011-11-01T12:01:15Z</time>
      </trkpt>
      <trkpt lat="44.58113" lon="6.12643">
        <ele>845.616943</ele>
        <time>2011-11-01T12:01:18Z</time>
      </trkpt>
      <trkpt lat="44.58112" lon="6.12622">
        <ele>843.694092</ele>
        <time>2011-11-01T12:01:20Z</time>
      </trkpt>
      <trkpt lat="44.58112" lon="6.12612">
        <ele>842.252197</ele>
        <time>2011-11-01T12:01:21Z</time>
      </trkpt>
      <trkpt lat="44.58095" lon="6.12578">
        <ele>838.887695</ele>
        <time>2011-11-01T12:01:26Z</time>
      </trkpt>
      <trkpt lat="44.58077" lon="6.1257">
        <ele>837.445557</ele>
        <time>2011-11-01T12:01:29Z</time>
      </trkpt>
      <trkpt lat="44.58053" lon="6.12546">
        <ele>834.561768</ele>
        <time>2011-11-01T12:01:34Z</time>
      </trkpt>
      <trkpt lat="44.58068" lon="6.12508">
        <ele>831.197266</ele>
        <time>2011-11-01T12:01:40Z</time>
      </trkpt>
      <trkpt lat="44.58074" lon="6.12506">
        <ele>831.197266</ele>
        <time>2011-11-01T12:01:41Z</time>
      </trkpt>
      <trkpt lat="44.58093" lon="6.12501">
        <ele>830.23584</ele>
        <time>2011-11-01T12:01:44Z</time>
      </trkpt>
      <trkpt lat="44.58106" lon="6.12487">
        <ele>828.313232</ele>
        <time>2011-11-01T12:01:48Z</time>
      </trkpt>
      <trkpt lat="44.58084" lon="6.12464">
        <ele>826.871094</ele>
        <time>2011-11-01T12:01:53Z</time>
      </trkpt>
      <trkpt lat="44.58054" lon="6.12458">
        <ele>824.467773</ele>
        <time>2011-11-01T12:01:57Z</time>
      </trkpt>
      <trkpt lat="44.58037" lon="6.12453">
        <ele>822.545166</ele>
        <time>2011-11-01T12:01:59Z</time>
      </trkpt>
      <trkpt lat="44.58012" lon="6.1244">
        <ele>821.103271</ele>
        <time>2011-11-01T12:02:02Z</time>
      </trkpt>
      <trkpt lat="44.57978" lon="6.12422">
        <ele>818.219238</ele>
        <time>2011-11-01T12:02:06Z</time>
      </trkpt>
      <trkpt lat="44.57947" lon="6.12406">
        <ele>816.296631</ele>
        <time>2011-11-01T12:02:10Z</time>
      </trkpt>
      <trkpt lat="44.5793" lon="6.12398">
        <ele>814.854736</ele>
        <time>2011-11-01T12:02:13Z</time>
      </trkpt>
      <trkpt lat="44.57898" lon="6.12382">
        <ele>812.932129</ele>
        <time>2011-11-01T12:02:18Z</time>
      </trkpt>
      <trkpt lat="44.57886" lon="6.12376">
        <ele>811.009277</ele>
        <time>2011-11-01T12:02:20Z</time>
      </trkpt>
      <trkpt lat="44.57859" lon="6.12362">
        <ele>808.605957</ele>
        <time>2011-11-01T12:02:25Z</time>
      </trkpt>
      <trkpt lat="44.57839" lon="6.12352">
        <ele>807.644775</ele>
        <time>2011-11-01T12:02:29Z</time>
      </trkpt>
      <trkpt lat="44.57827" lon="6.12347">
        <ele>806.68335</ele>
        <time>2011-11-01T12:02:32Z</time>
      </trkpt>
      <trkpt lat="44.57808" lon="6.12338">
        <ele>804.760742</ele>
        <time>2011-11-01T12:02:36Z</time>
      </trkpt>
      <trkpt lat="44.57788" lon="6.12331">
        <ele>803.318848</ele>
        <time>2011-11-01T12:02:39Z</time>
      </trkpt>
      <trkpt lat="44.57788" lon="6.1233">
        <ele>802.838135</ele>
        <time>2011-11-01T12:02:50Z</time>
      </trkpt>
      <trkpt lat="44.57788" lon="6.1233">
        <ele>804.760742</ele>
        <time>2011-11-01T12:03:04Z</time>
      </trkpt>
      <trkpt lat="44.57788" lon="6.1233">
        <ele>802.838135</ele>
        <time>2011-11-01T12:03:06Z</time>
      </trkpt>
      <trkpt lat="44.57788" lon="6.1233">
        <ele>804.280273</ele>
        <time>2011-11-01T12:03:09Z</time>
      </trkpt>
      <trkpt lat="44.57788" lon="6.1233">
        <ele>802.838135</ele>
        <time>2011-11-01T12:03:41Z</time>
      </trkpt>
      <trkpt lat="44.57788" lon="6.1233">
        <ele>803.318848</ele>
        <time>2011-11-01T12:05:11Z</time>
      </trkpt>
      <trkpt lat="44.57788" lon="6.1233">
        <ele>802.838135</ele>
        <time>2011-11-01T12:05:37Z</time>
      </trkpt>
      <trkpt lat="44.57788" lon="6.12287">
        <ele>802.838135</ele>
        <time>2011-11-01T12:05:49Z</time>
      </trkpt>
      <trkpt lat="44.57788" lon="6.12281">
        <ele>802.838135</ele>
        <time>2011-11-01T12:05:50Z</time>
      </trkpt>
      <trkpt lat="44.57772" lon="6.12178">
        <ele>799.473633</ele>
        <time>2011-11-01T12:06:04Z</time>
      </trkpt>
      <trkpt lat="44.5777" lon="6.12168">
        <ele>799.473633</ele>
        <time>2011-11-01T12:06:05Z</time>
      </trkpt>
      <trkpt lat="44.57745" lon="6.12072">
        <ele>796.589844</ele>
        <time>2011-11-01T12:06:14Z</time>
      </trkpt>
      <trkpt lat="44.57732" lon="6.12023">
        <ele>793.705566</ele>
        <time>2011-11-01T12:06:18Z</time>
      </trkpt>
      <trkpt lat="44.57729" lon="6.12011">
        <ele>793.705566</ele>
        <time>2011-11-01T12:06:19Z</time>
      </trkpt>
      <trkpt lat="44.57694" lon="6.11867">
        <ele>791.302246</ele>
        <time>2011-11-01T12:06:30Z</time>
      </trkpt>
      <trkpt lat="44.5767" lon="6.11768">
        <ele>788.418457</ele>
        <time>2011-11-01T12:06:38Z</time>
      </trkpt>
      <trkpt lat="44.57624" lon="6.11579">
        <ele>785.053955</ele>
        <time>2011-11-01T12:06:55Z</time>
      </trkpt>
      <trkpt lat="44.57622" lon="6.11568">
        <ele>785.053955</ele>
        <time>2011-11-01T12:06:56Z</time>
      </trkpt>
      <trkpt lat="44.57604" lon="6.1149">
        <ele>782.650635</ele>
        <time>2011-11-01T12:07:03Z</time>
      </trkpt>
      <trkpt lat="44.57563" lon="6.1132">
        <ele>779.285645</ele>
        <time>2011-11-01T12:07:18Z</time>
      </trkpt>
      <trkpt lat="44.57561" lon="6.11309">
        <ele>779.285645</ele>
        <time>2011-11-01T12:07:19Z</time>
      </trkpt>
      <trkpt lat="44.57556" lon="6.11287">
        <ele>777.84375</ele>
        <time>2011-11-01T12:07:21Z</time>
      </trkpt>
      <trkpt lat="44.57506" lon="6.1114">
        <ele>774.479248</ele>
        <time>2011-11-01T12:07:36Z</time>
      </trkpt>
      <trkpt lat="44.57451" lon="6.11049">
        <ele>772.075928</ele>
        <time>2011-11-01T12:07:47Z</time>
      </trkpt>
      <trkpt lat="44.5736" lon="6.10939">
        <ele>771.114746</ele>
        <time>2011-11-01T12:08:05Z</time>
      </trkpt>
      <trkpt lat="44.57276" lon="6.1084">
        <ele>771.114746</ele>
        <time>2011-11-01T12:08:24Z</time>
      </trkpt>
      <trkpt lat="44.57197" lon="6.10744">
        <ele>769.672852</ele>
        <time>2011-11-01T12:08:42Z</time>
      </trkpt>
      <trkpt lat="44.57124" lon="6.10643">
        <ele>767.75</ele>
        <time>2011-11-01T12:08:58Z</time>
      </trkpt>
      <trkpt lat="44.57081" lon="6.10566">
        <ele>764.385498</ele>
        <time>2011-11-01T12:09:07Z</time>
      </trkpt>
      <trkpt lat="44.57076" lon="6.10557">
        <ele>764.385498</ele>
        <time>2011-11-01T12:09:08Z</time>
      </trkpt>
      <trkpt lat="44.57033" lon="6.10496">
        <ele>761.020752</ele>
        <time>2011-11-01T12:09:15Z</time>
      </trkpt>
      <trkpt lat="44.57006" lon="6.10467">
        <ele>760.059326</ele>
        <time>2011-11-01T12:09:19Z</time>
      </trkpt>
      <trkpt lat="44.56986" lon="6.10447">
        <ele>758.617432</ele>
        <time>2011-11-01T12:09:22Z</time>
      </trkpt>
      <trkpt lat="44.5696" lon="6.10406">
        <ele>758.136963</ele>
        <time>2011-11-01T12:09:27Z</time>
      </trkpt>
      <trkpt lat="44.56938" lon="6.10362">
        <ele>757.65625</ele>
        <time>2011-11-01T12:09:33Z</time>
      </trkpt>
      <trkpt lat="44.56939" lon="6.10332">
        <ele>756.694824</ele>
        <time>2011-11-01T12:09:37Z</time>
      </trkpt>
      <trkpt lat="44.56941" lon="6.10317">
        <ele>756.694824</ele>
        <time>2011-11-01T12:09:39Z</time>
      </trkpt>
      <trkpt lat="44.5693" lon="6.10293">
        <ele>756.694824</ele>
        <time>2011-11-01T12:09:43Z</time>
      </trkpt>
      <trkpt lat="44.56924" lon="6.10279">
        <ele>756.694824</ele>
        <time>2011-11-01T12:09:45Z</time>
      </trkpt>
      <trkpt lat="44.56918" lon="6.1025">
        <ele>756.694824</ele>
        <time>2011-11-01T12:09:49Z</time>
      </trkpt>
      <trkpt lat="44.56892" lon="6.10094">
        <ele>754.772217</ele>
        <time>2011-11-01T12:10:09Z</time>
      </trkpt>
      <trkpt lat="44.56842" lon="6.09955">
        <ele>753.330322</ele>
        <time>2011-11-01T12:10:28Z</time>
      </trkpt>
      <trkpt lat="44.56794" lon="6.09838">
        <ele>752.368896</ele>
        <time>2011-11-01T12:10:44Z</time>
      </trkpt>
      <trkpt lat="44.56765" lon="6.09768">
        <ele>751.888428</ele>
        <time>2011-11-01T12:10:54Z</time>
      </trkpt>
      <trkpt lat="44.56756" lon="6.0974">
        <ele>750.927002</ele>
        <time>2011-11-01T12:10:58Z</time>
      </trkpt>
      <trkpt lat="44.56753" lon="6.09704">
        <ele>751.407715</ele>
        <time>2011-11-01T12:11:03Z</time>
      </trkpt>
      <trkpt lat="44.56736" lon="6.09689">
        <ele>750.446533</ele>
        <time>2011-11-01T12:11:07Z</time>
      </trkpt>
      <trkpt lat="44.56694" lon="6.09592">
        <ele>749.004395</ele>
        <time>2011-11-01T12:11:22Z</time>
      </trkpt>
      <trkpt lat="44.56664" lon="6.0952">
        <ele>748.523682</ele>
        <time>2011-11-01T12:11:32Z</time>
      </trkpt>
      <trkpt lat="44.56642" lon="6.09469">
        <ele>747.562256</ele>
        <time>2011-11-01T12:11:39Z</time>
      </trkpt>
      <trkpt lat="44.56616" lon="6.09402">
        <ele>747.081543</ele>
        <time>2011-11-01T12:11:48Z</time>
      </trkpt>
      <trkpt lat="44.5658" lon="6.09313">
        <ele>746.120361</ele>
        <time>2011-11-01T12:12:00Z</time>
      </trkpt>
      <trkpt lat="44.56567" lon="6.09285">
        <ele>745.639648</ele>
        <time>2011-11-01T12:12:04Z</time>
      </trkpt>
      <trkpt lat="44.56556" lon="6.09259">
        <ele>745.639648</ele>
        <time>2011-11-01T12:12:08Z</time>
      </trkpt>
      <trkpt lat="44.56484" lon="6.09082">
        <ele>743.717041</ele>
        <time>2011-11-01T12:12:32Z</time>
      </trkpt>
      <trkpt lat="44.56413" lon="6.08913">
        <ele>743.236328</ele>
        <time>2011-11-01T12:12:57Z</time>
      </trkpt>
      <trkpt lat="44.56366" lon="6.088">
        <ele>743.236328</ele>
        <time>2011-11-01T12:13:14Z</time>
      </trkpt>
      <trkpt lat="44.5632" lon="6.08688">
        <ele>744.678223</ele>
        <time>2011-11-01T12:13:33Z</time>
      </trkpt>
      <trkpt lat="44.56287" lon="6.08604">
        <ele>745.158936</ele>
        <time>2011-11-01T12:13:48Z</time>
      </trkpt>
      <trkpt lat="44.56243" lon="6.08497">
        <ele>744.197754</ele>
        <time>2011-11-01T12:14:05Z</time>
      </trkpt>
      <trkpt lat="44.56232" lon="6.08476">
        <ele>742.755859</ele>
        <time>2011-11-01T12:14:09Z</time>
      </trkpt>
      <trkpt lat="44.56225" lon="6.08459">
        <ele>743.236328</ele>
        <time>2011-11-01T12:14:12Z</time>
      </trkpt>
      <trkpt lat="44.56215" lon="6.08436">
        <ele>744.197754</ele>
        <time>2011-11-01T12:14:16Z</time>
      </trkpt>
      <trkpt lat="44.56208" lon="6.08422">
        <ele>745.639648</ele>
        <time>2011-11-01T12:14:18Z</time>
      </trkpt>
      <trkpt lat="44.56207" lon="6.08401">
        <ele>744.197754</ele>
        <time>2011-11-01T12:14:22Z</time>
      </trkpt>
      <trkpt lat="44.56202" lon="6.08386">
        <ele>745.158936</ele>
        <time>2011-11-01T12:14:25Z</time>
      </trkpt>
      <trkpt lat="44.56195" lon="6.0837">
        <ele>744.678223</ele>
        <time>2011-11-01T12:14:28Z</time>
      </trkpt>
      <trkpt lat="44.56178" lon="6.08331">
        <ele>744.678223</ele>
        <time>2011-11-01T12:14:35Z</time>
      </trkpt>
      <trkpt lat="44.56148" lon="6.08261">
        <ele>743.717041</ele>
        <time>2011-11-01T12:14:47Z</time>
      </trkpt>
      <trkpt lat="44.56146" lon="6.08254">
        <ele>743.717041</ele>
        <time>2011-11-01T12:14:48Z</time>
      </trkpt>
      <trkpt lat="44.56141" lon="6.08222">
        <ele>744.197754</ele>
        <time>2011-11-01T12:14:53Z</time>
      </trkpt>
      <trkpt lat="44.56143" lon="6.08182">
        <ele>743.717041</ele>
        <time>2011-11-01T12:14:59Z</time>
      </trkpt>
      <trkpt lat="44.56143" lon="6.08162">
        <ele>744.197754</ele>
        <time>2011-11-01T12:15:02Z</time>
      </trkpt>
      <trkpt lat="44.56115" lon="6.08078">
        <ele>745.158936</ele>
        <time>2011-11-01T12:15:16Z</time>
      </trkpt>
      <trkpt lat="44.56109" lon="6.08063">
        <ele>745.158936</ele>
        <time>2011-11-01T12:15:19Z</time>
      </trkpt>
      <trkpt lat="44.56107" lon="6.0804">
        <ele>745.158936</ele>
        <time>2011-11-01T12:15:23Z</time>
      </trkpt>
      <trkpt lat="44.56119" lon="6.07991">
        <ele>746.601074</ele>
        <time>2011-11-01T12:15:37Z</time>
      </trkpt>
      <trkpt lat="44.56117" lon="6.07948">
        <ele>746.120361</ele>
        <time>2011-11-01T12:15:49Z</time>
      </trkpt>
      <trkpt lat="44.56114" lon="6.07936">
        <ele>747.081543</ele>
        <time>2011-11-01T12:15:52Z</time>
      </trkpt>
      <trkpt lat="44.5609" lon="6.0786">
        <ele>745.158936</ele>
        <time>2011-11-01T12:16:09Z</time>
      </trkpt>
      <trkpt lat="44.56082" lon="6.07835">
        <ele>747.081543</ele>
        <time>2011-11-01T12:16:14Z</time>
      </trkpt>
      <trkpt lat="44.56057" lon="6.07762">
        <ele>748.523682</ele>
        <time>2011-11-01T12:16:30Z</time>
      </trkpt>
      <trkpt lat="44.56054" lon="6.07751">
        <ele>748.043213</ele>
        <time>2011-11-01T12:16:38Z</time>
      </trkpt>
      <trkpt lat="44.56035" lon="6.07694">
        <ele>748.523682</ele>
        <time>2011-11-01T12:16:50Z</time>
      </trkpt>
      <trkpt lat="44.56021" lon="6.07654">
        <ele>748.523682</ele>
        <time>2011-11-01T12:16:57Z</time>
      </trkpt>
      <trkpt lat="44.56008" lon="6.07618">
        <ele>749.004395</ele>
        <time>2011-11-01T12:17:04Z</time>
      </trkpt>
      <trkpt lat="44.55953" lon="6.07569">
        <ele>748.523682</ele>
        <time>2011-11-01T12:17:22Z</time>
      </trkpt>
      <trkpt lat="44.55943" lon="6.07559">
        <ele>747.081543</ele>
        <time>2011-11-01T12:17:25Z</time>
      </trkpt>
      <trkpt lat="44.55936" lon="6.07552">
        <ele>748.043213</ele>
        <time>2011-11-01T12:17:27Z</time>
      </trkpt>
      <trkpt lat="44.55918" lon="6.07534">
        <ele>748.043213</ele>
        <time>2011-11-01T12:17:32Z</time>
      </trkpt>
      <trkpt lat="44.5588" lon="6.07496">
        <ele>746.601074</ele>
        <time>2011-11-01T12:17:44Z</time>
      </trkpt>
      <trkpt lat="44.55875" lon="6.07491">
        <ele>748.043213</ele>
        <time>2011-11-01T12:17:51Z</time>
      </trkpt>
      <trkpt lat="44.55875" lon="6.07491">
        <ele>747.562256</ele>
        <time>2011-11-01T12:18:14Z</time>
      </trkpt>
      <trkpt lat="44.55875" lon="6.07491">
        <ele>747.081543</ele>
        <time>2011-11-01T12:18:27Z</time>
      </trkpt>
    </trkseg>
  </trk>
</gpx>